PWSweather.com
Personal Weather Stations
Station Observations
SKYDIVEKS
Skydive Kansas, Osage City, KS 66523

Skydive KansasOsage City, KS 66523

Lat: 38.636, Lon: -95.803

Elevation: 1080

Station Type: La Crosse

http://www.skydivekansas.com

Latest ConditionsUpdated 7:39:00 AM CDT Saturday, Oct 25, 2014
Currently Today's Max Today's Min Today's Average
Temperature 56.3°F13.5°C 64.4°F18.0°C 56.3°F13.5°C 60.2°F15.7°C
Dew Point 48.4°F9.1°C 55.4°F13.0°C 48.2°F9.0°C 51.6°F10.9°C
Winds Calm Calm 8.9 mph N14.3 kmh N - 0.6 mph 1.0 kmh
Wind Gusts -- 8.9 mph14.3 kmh - -
Humidity 75% 77% 72% 73%
Pressure 29.02 in982.7 mb 29.02 in982.7 mb 28.96 in980.7 mb -
Hour Temp Dew Point Humidity Winds Wind Gusts Pressure Precip Precip Rate Daily Precip Total
07:39 AM 56.3°F13.5°C 48.4°F9.1°C 75% Calm Calm -- 29.02 in982.7 mb 0.00 in0.0 mm 0.00 in/hr0.0 mm/hr 0.00 in0.0 mm
07:38 AM 56.3°F13.5°C 48.4°F9.1°C 75% Calm Calm -- 29.02 in982.7 mb 0.00 in0.0 mm 0.00 in/hr0.0 mm/hr 0.00 in0.0 mm
07:37 AM 56.3°F13.5°C 48.4°F9.1°C 75% Calm Calm -- 29.02 in982.7 mb 0.00 in0.0 mm 0.00 in/hr0.0 mm/hr 0.00 in0.0 mm
07:36 AM 56.3°F13.5°C 48.4°F9.1°C 75% Calm Calm -- 29.02 in982.7 mb 0.00 in0.0 mm 0.00 in/hr0.0 mm/hr 0.00 in0.0 mm
07:35 AM 56.5°F13.6°C 48.9°F9.4°C 76% Calm Calm -- 29.02 in982.7 mb 0.00 in0.0 mm 0.00 in/hr0.0 mm/hr 0.00 in0.0 mm
07:34 AM 56.5°F13.6°C 48.9°F9.4°C 76% Calm Calm -- 29.02 in982.7 mb 0.00 in0.0 mm 0.00 in/hr0.0 mm/hr 0.00 in0.0 mm
07:33 AM 56.5°F13.6°C 48.9°F9.4°C 76% Calm Calm -- 29.02 in982.7 mb 0.00 in0.0 mm 0.00 in/hr0.0 mm/hr 0.00 in0.0 mm
07:32 AM 56.5°F13.6°C 48.9°F9.4°C 76% Calm Calm -- 29.02 in982.7 mb 0.00 in0.0 mm 0.00 in/hr0.0 mm/hr 0.00 in0.0 mm
07:31 AM 56.5°F13.6°C 48.9°F9.4°C 76% Calm Calm -- 29.02 in982.7 mb 0.00 in0.0 mm 0.00 in/hr0.0 mm/hr 0.00 in0.0 mm
07:30 AM 56.5°F13.6°C 48.6°F9.2°C 75% Calm Calm -- 29.02 in982.7 mb 0.00 in0.0 mm 0.00 in/hr0.0 mm/hr 0.00 in0.0 mm
07:29 AM 56.5°F13.6°C 48.6°F9.2°C 75% Calm Calm -- 29.01 in982.4 mb 0.00 in0.0 mm 0.00 in/hr0.0 mm/hr 0.00 in0.0 mm
07:28 AM 56.5°F13.6°C 48.6°F9.2°C 75% Calm Calm -- 29.02 in982.7 mb 0.00 in0.0 mm 0.00 in/hr0.0 mm/hr 0.00 in0.0 mm
07:27 AM 56.5°F13.6°C 48.6°F9.2°C 75% Calm Calm -- 29.02 in982.7 mb 0.00 in0.0 mm 0.00 in/hr0.0 mm/hr 0.00 in0.0 mm
07:26 AM 56.5°F13.6°C 48.6°F9.2°C 75% Calm Calm -- 29.02 in982.7 mb 0.00 in0.0 mm 0.00 in/hr0.0 mm/hr 0.00 in0.0 mm
07:25 AM 56.5°F13.6°C 48.2°F9.0°C 74% Calm Calm -- 29.02 in982.7 mb 0.00 in0.0 mm 0.00 in/hr0.0 mm/hr 0.00 in0.0 mm
07:24 AM 56.5°F13.6°C 48.2°F9.0°C 74% Calm Calm -- 29.02 in982.7 mb 0.00 in0.0 mm 0.00 in/hr0.0 mm/hr 0.00 in0.0 mm
07:23 AM 56.7°F13.7°C 48.4°F9.1°C 74% Calm Calm -- 29.02 in982.7 mb 0.00 in0.0 mm 0.00 in/hr0.0 mm/hr 0.00 in0.0 mm
07:22 AM 56.5°F13.6°C 48.2°F9.0°C 74% Calm Calm -- 29.02 in982.7 mb 0.00 in0.0 mm 0.00 in/hr0.0 mm/hr 0.00 in0.0 mm
07:21 AM 56.5°F13.6°C 48.2°F9.0°C 74% Calm Calm -- 29.01 in982.4 mb 0.00 in0.0 mm 0.00 in/hr0.0 mm/hr 0.00 in0.0 mm
07:20 AM 56.5°F13.6°C 48.2°F9.0°C 74% Calm Calm -- 29.01 in982.4 mb 0.00 in0.0 mm 0.00 in/hr0.0 mm/hr 0.00 in0.0 mm
07:19 AM 56.5°F13.6°C 48.2°F9.0°C 74% Calm Calm -- 29.01 in982.4 mb 0.00 in0.0 mm 0.00 in/hr0.0 mm/hr 0.00 in0.0 mm
07:18 AM 56.7°F13.7°C 48.4°F9.1°C 74% Calm Calm -- 29.01 in982.4 mb 0.00 in0.0 mm 0.00 in/hr0.0 mm/hr 0.00 in0.0 mm
07:17 AM 56.7°F13.7°C 48.4°F9.1°C 74% Calm Calm -- 29.01 in982.4 mb 0.00 in0.0 mm 0.00 in/hr0.0 mm/hr 0.00 in0.0 mm
07:16 AM 56.7°F13.7°C 48.4°F9.1°C 74% Calm Calm -- 29.01 in982.4 mb 0.00 in0.0 mm 0.00 in/hr0.0 mm/hr 0.00 in0.0 mm
07:15 AM 56.7°F13.7°C 48.4°F9.1°C 74% Calm Calm -- 29.01 in982.4 mb 0.00 in0.0 mm 0.00 in/hr0.0 mm/hr 0.00 in0.0 mm
07:14 AM 56.8°F13.8°C 48.6°F9.2°C 74% Calm Calm -- 29.01 in982.4 mb 0.00 in0.0 mm 0.00 in/hr0.0 mm/hr 0.00 in0.0 mm
07:13 AM 56.8°F13.8°C 48.6°F9.2°C 74% Calm Calm -- 29.01 in982.4 mb 0.00 in0.0 mm 0.00 in/hr0.0 mm/hr 0.00 in0.0 mm
07:12 AM 56.8°F13.8°C 48.6°F9.2°C 74% Calm Calm -- 29.01 in982.4 mb 0.00 in0.0 mm 0.00 in/hr0.0 mm/hr 0.00 in0.0 mm
07:11 AM 56.8°F13.8°C 48.6°F9.2°C 74% Calm Calm -- 29.01 in982.4 mb 0.00 in0.0 mm 0.00 in/hr0.0 mm/hr 0.00 in0.0 mm
07:10 AM 56.8°F13.8°C 48.6°F9.2°C 74% Calm Calm -- 29.01 in982.4 mb 0.00 in0.0 mm 0.00 in/hr0.0 mm/hr 0.00 in0.0 mm
07:09 AM 56.8°F13.8°C 48.6°F9.2°C 74% Calm Calm -- 29.01 in982.4 mb 0.00 in0.0 mm 0.00 in/hr0.0 mm/hr 0.00 in0.0 mm
07:08 AM 56.8°F13.8°C 48.6°F9.2°C 74% Calm Calm -- 29.01 in982.4 mb 0.00 in0.0 mm 0.00 in/hr0.0 mm/hr 0.00 in0.0 mm
07:07 AM 56.8°F13.8°C 48.2°F9.0°C 73% Calm Calm -- 29.01 in982.4 mb 0.00 in0.0 mm 0.00 in/hr0.0 mm/hr 0.00 in0.0 mm
07:06 AM 56.8°F13.8°C 48.2°F9.0°C 73% Calm Calm -- 29.01 in982.4 mb 0.00 in0.0 mm 0.00 in/hr0.0 mm/hr 0.00 in0.0 mm
07:05 AM 56.8°F13.8°C 48.2°F9.0°C 73% Calm Calm -- 29.01 in982.4 mb 0.00 in0.0 mm 0.00 in/hr0.0 mm/hr 0.00 in0.0 mm
07:04 AM 56.8°F13.8°C 48.2°F9.0°C 73% Calm Calm -- 29.01 in982.4 mb 0.00 in0.0 mm 0.00 in/hr0.0 mm/hr 0.00 in0.0 mm
07:03 AM 57.0°F13.9°C 48.4°F9.1°C 73% Calm Calm -- 29.01 in982.4 mb 0.00 in0.0 mm 0.00 in/hr0.0 mm/hr 0.00 in0.0 mm
07:02 AM 56.8°F13.8°C 48.2°F9.0°C 73% Calm Calm -- 29.01 in982.4 mb 0.00 in0.0 mm 0.00 in/hr0.0 mm/hr 0.00 in0.0 mm
07:01 AM 57.0°F13.9°C 48.7°F9.3°C 74% Calm Calm -- 29.01 in982.4 mb 0.00 in0.0 mm 0.00 in/hr0.0 mm/hr 0.00 in0.0 mm
07:00 AM 57.0°F13.9°C 48.7°F9.3°C 74% Calm Calm -- 29.01 in982.4 mb 0.00 in0.0 mm 0.00 in/hr0.0 mm/hr 0.00 in0.0 mm
06:59 AM 57.0°F13.9°C 48.7°F9.3°C 74% Calm Calm -- 29.00 in982.1 mb 0.00 in0.0 mm 0.00 in/hr0.0 mm/hr 0.00 in0.0 mm
06:58 AM 57.0°F13.9°C 48.7°F9.3°C 74% Calm Calm -- 29.01 in982.4 mb 0.00 in0.0 mm 0.00 in/hr0.0 mm/hr 0.00 in0.0 mm
06:57 AM 57.0°F13.9°C 48.7°F9.3°C 74% Calm Calm -- 29.01 in982.4 mb 0.00 in0.0 mm 0.00 in/hr0.0 mm/hr 0.00 in0.0 mm
06:56 AM 57.0°F13.9°C 48.7°F9.3°C 74% Calm Calm -- 29.00 in982.1 mb 0.00 in0.0 mm 0.00 in/hr0.0 mm/hr 0.00 in0.0 mm
06:55 AM 57.2°F14.0°C 48.9°F9.4°C 74% Calm Calm -- 29.00 in982.1 mb 0.00 in0.0 mm 0.00 in/hr0.0 mm/hr 0.00 in0.0 mm
06:54 AM 57.2°F14.0°C 48.9°F9.4°C 74% Calm Calm -- 29.00 in982.1 mb 0.00 in0.0 mm 0.00 in/hr0.0 mm/hr 0.00 in0.0 mm
06:53 AM 57.4°F14.1°C 49.1°F9.5°C 74% Calm Calm -- 29.01 in982.4 mb 0.00 in0.0 mm 0.00 in/hr0.0 mm/hr 0.00 in0.0 mm
06:52 AM 57.4°F14.1°C 49.1°F9.5°C 74% Calm Calm -- 29.00 in982.1 mb 0.00 in0.0 mm 0.00 in/hr0.0 mm/hr 0.00 in0.0 mm
06:51 AM 57.4°F14.1°C 49.1°F9.5°C 74% Calm Calm -- 29.00 in982.1 mb 0.00 in0.0 mm 0.00 in/hr0.0 mm/hr 0.00 in0.0 mm
06:50 AM 57.4°F14.1°C 49.1°F9.5°C 74% Calm Calm -- 29.00 in982.1 mb 0.00 in0.0 mm 0.00 in/hr0.0 mm/hr 0.00 in0.0 mm
06:49 AM 57.4°F14.1°C 49.1°F9.5°C 74% Calm Calm -- 29.01 in982.4 mb 0.00 in0.0 mm 0.00 in/hr0.0 mm/hr 0.00 in0.0 mm
06:48 AM 57.4°F14.1°C 49.1°F9.5°C 74% Calm Calm -- 29.01 in982.4 mb 0.00 in0.0 mm 0.00 in/hr0.0 mm/hr 0.00 in0.0 mm
06:47 AM 57.4°F14.1°C 49.1°F9.5°C 74% Calm Calm -- 29.00 in982.1 mb 0.00 in0.0 mm 0.00 in/hr0.0 mm/hr 0.00 in0.0 mm
06:46 AM 57.4°F14.1°C 49.1°F9.5°C 74% Calm Calm -- 29.00 in982.1 mb 0.00 in0.0 mm 0.00 in/hr0.0 mm/hr 0.00 in0.0 mm
06:45 AM 57.4°F14.1°C 49.1°F9.5°C 74% Calm Calm -- 29.00 in982.1 mb 0.00 in0.0 mm 0.00 in/hr0.0 mm/hr 0.00 in0.0 mm
06:44 AM 57.4°F14.1°C 49.1°F9.5°C 74% Calm Calm -- 29.00 in982.1 mb 0.00 in0.0 mm 0.00 in/hr0.0 mm/hr 0.00 in0.0 mm
06:43 AM 57.6°F14.2°C 49.3°F9.6°C 74% Calm Calm -- 29.00 in982.1 mb 0.00 in0.0 mm 0.00 in/hr0.0 mm/hr 0.00 in0.0 mm
06:42 AM 57.6°F14.2°C 49.3°F9.6°C 74% Calm Calm -- 29.00 in982.1 mb 0.00 in0.0 mm 0.00 in/hr0.0 mm/hr 0.00 in0.0 mm
06:41 AM 57.6°F14.2°C 49.3°F9.6°C 74% Calm Calm -- 29.00 in982.1 mb 0.00 in0.0 mm 0.00 in/hr0.0 mm/hr 0.00 in0.0 mm
06:40 AM 57.6°F14.2°C 49.3°F9.6°C 74% Calm Calm -- 29.00 in982.1 mb 0.00 in0.0 mm 0.00 in/hr0.0 mm/hr 0.00 in0.0 mm
06:39 AM 57.6°F14.2°C 49.3°F9.6°C 74% Calm Calm -- 29.00 in982.1 mb 0.00 in0.0 mm 0.00 in/hr0.0 mm/hr 0.00 in0.0 mm
06:38 AM 57.7°F14.3°C 49.5°F9.7°C 74% Calm Calm -- 29.00 in982.1 mb 0.00 in0.0 mm 0.00 in/hr0.0 mm/hr 0.00 in0.0 mm
06:37 AM 57.7°F14.3°C 49.5°F9.7°C 74% Calm Calm -- 29.00 in982.1 mb 0.00 in0.0 mm 0.00 in/hr0.0 mm/hr 0.00 in0.0 mm
06:36 AM 57.7°F14.3°C 49.5°F9.7°C 74% Calm Calm -- 29.00 in982.1 mb 0.00 in0.0 mm 0.00 in/hr0.0 mm/hr 0.00 in0.0 mm
06:35 AM 57.7°F14.3°C 49.5°F9.7°C 74% Calm Calm -- 29.00 in982.1 mb 0.00 in0.0 mm 0.00 in/hr0.0 mm/hr 0.00 in0.0 mm
06:34 AM 57.7°F14.3°C 49.5°F9.7°C 74% Calm Calm -- 29.00 in982.1 mb 0.00 in0.0 mm 0.00 in/hr0.0 mm/hr 0.00 in0.0 mm
06:33 AM 57.7°F14.3°C 49.5°F9.7°C 74% Calm Calm -- 29.00 in982.1 mb 0.00 in0.0 mm 0.00 in/hr0.0 mm/hr 0.00 in0.0 mm
06:32 AM 57.7°F14.3°C 49.5°F9.7°C 74% Calm Calm -- 29.00 in982.1 mb 0.00 in0.0 mm 0.00 in/hr0.0 mm/hr 0.00 in0.0 mm
06:31 AM 57.7°F14.3°C 49.5°F9.7°C 74% Calm Calm -- 28.99 in981.7 mb 0.00 in0.0 mm 0.00 in/hr0.0 mm/hr 0.00 in0.0 mm
06:30 AM 57.7°F14.3°C 49.5°F9.7°C 74% Calm Calm -- 28.99 in981.7 mb 0.00 in0.0 mm 0.00 in/hr0.0 mm/hr 0.00 in0.0 mm
06:29 AM 57.7°F14.3°C 49.5°F9.7°C 74% Calm Calm -- 29.00 in982.1 mb 0.00 in0.0 mm 0.00 in/hr0.0 mm/hr 0.00 in0.0 mm
06:28 AM 57.9°F14.4°C 49.6°F9.8°C 74% Calm Calm -- 29.00 in982.1 mb 0.00 in0.0 mm 0.00 in/hr0.0 mm/hr 0.00 in0.0 mm
06:27 AM 57.9°F14.4°C 49.6°F9.8°C 74% Calm Calm -- 28.99 in981.7 mb 0.00 in0.0 mm 0.00 in/hr0.0 mm/hr 0.00 in0.0 mm
06:26 AM 57.9°F14.4°C 49.6°F9.8°C 74% Calm Calm -- 29.00 in982.1 mb 0.00 in0.0 mm 0.00 in/hr0.0 mm/hr 0.00 in0.0 mm
06:25 AM 57.9°F14.4°C 49.6°F9.8°C 74% Calm Calm -- 28.99 in981.7 mb 0.00 in0.0 mm 0.00 in/hr0.0 mm/hr 0.00 in0.0 mm
06:24 AM 57.9°F14.4°C 49.6°F9.8°C 74% Calm Calm -- 28.99 in981.7 mb 0.00 in0.0 mm 0.00 in/hr0.0 mm/hr 0.00 in0.0 mm
06:23 AM 57.9°F14.4°C 49.6°F9.8°C 74% Calm Calm -- 28.99 in981.7 mb 0.00 in0.0 mm 0.00 in/hr0.0 mm/hr 0.00 in0.0 mm
06:22 AM 57.9°F14.4°C 49.6°F9.8°C 74% Calm Calm -- 28.99 in981.7 mb 0.00 in0.0 mm 0.00 in/hr0.0 mm/hr 0.00 in0.0 mm
06:21 AM 57.9°F14.4°C 49.6°F9.8°C 74% Calm Calm -- 28.99 in981.7 mb 0.00 in0.0 mm 0.00 in/hr0.0 mm/hr 0.00 in0.0 mm
06:20 AM 57.9°F14.4°C 49.6°F9.8°C 74% Calm Calm -- 28.99 in981.7 mb 0.00 in0.0 mm 0.00 in/hr0.0 mm/hr 0.00 in0.0 mm
06:19 AM 57.9°F14.4°C 49.6°F9.8°C 74% Calm Calm -- 28.99 in981.7 mb 0.00 in0.0 mm 0.00 in/hr0.0 mm/hr 0.00 in0.0 mm
06:18 AM 57.9°F14.4°C 49.6°F9.8°C 74% Calm Calm -- 29.00 in982.1 mb 0.00 in0.0 mm 0.00 in/hr0.0 mm/hr 0.00 in0.0 mm
06:17 AM 57.9°F14.4°C 49.6°F9.8°C 74% Calm Calm -- 29.00 in982.1 mb 0.00 in0.0 mm 0.00 in/hr0.0 mm/hr 0.00 in0.0 mm
06:16 AM 57.9°F14.4°C 49.6°F9.8°C 74% Calm Calm -- 29.00 in982.1 mb 0.00 in0.0 mm 0.00 in/hr0.0 mm/hr 0.00 in0.0 mm
06:15 AM 57.9°F14.4°C 49.6°F9.8°C 74% Calm Calm -- 29.00 in982.1 mb 0.00 in0.0 mm 0.00 in/hr0.0 mm/hr 0.00 in0.0 mm
06:14 AM 57.9°F14.4°C 49.6°F9.8°C 74% Calm Calm -- 29.00 in982.1 mb 0.00 in0.0 mm 0.00 in/hr0.0 mm/hr 0.00 in0.0 mm
06:13 AM 57.9°F14.4°C 49.6°F9.8°C 74% Calm Calm -- 29.00 in982.1 mb 0.00 in0.0 mm 0.00 in/hr0.0 mm/hr 0.00 in0.0 mm
06:12 AM 57.9°F14.4°C 49.6°F9.8°C 74% Calm Calm -- 29.00 in982.1 mb 0.00 in0.0 mm 0.00 in/hr0.0 mm/hr 0.00 in0.0 mm
06:11 AM 57.9°F14.4°C 50.0°F10.0°C 75% Calm Calm -- 28.99 in981.7 mb 0.00 in0.0 mm 0.00 in/hr0.0 mm/hr 0.00 in0.0 mm
06:10 AM 57.9°F14.4°C 50.0°F10.0°C 75% Calm Calm -- 29.00 in982.1 mb 0.00 in0.0 mm 0.00 in/hr0.0 mm/hr 0.00 in0.0 mm
06:09 AM 58.1°F14.5°C 50.2°F10.1°C 75% Calm Calm 1.8 mph2.9 kmh 29.00 in982.1 mb 0.00 in0.0 mm 0.00 in/hr0.0 mm/hr 0.00 in0.0 mm
06:08 AM 57.9°F14.4°C 50.0°F10.0°C 75% Calm Calm 1.8 mph2.9 kmh 28.99 in981.7 mb 0.00 in0.0 mm 0.00 in/hr0.0 mm/hr 0.00 in0.0 mm
06:07 AM 58.1°F14.5°C 50.2°F10.1°C 75% Calm Calm 1.8 mph2.9 kmh 28.99 in981.7 mb 0.00 in0.0 mm 0.00 in/hr0.0 mm/hr 0.00 in0.0 mm
06:06 AM 58.1°F14.5°C 50.2°F10.1°C 75% Calm Calm 1.8 mph2.9 kmh 28.99 in981.7 mb 0.00 in0.0 mm 0.00 in/hr0.0 mm/hr 0.00 in0.0 mm
06:05 AM 58.1°F14.5°C 50.2°F10.1°C 75% Calm Calm 1.8 mph2.9 kmh 28.99 in981.7 mb 0.00 in0.0 mm 0.00 in/hr0.0 mm/hr 0.00 in0.0 mm
06:04 AM 58.1°F14.5°C 50.5°F10.3°C 76% Calm Calm 1.8 mph2.9 kmh 28.99 in981.7 mb 0.00 in0.0 mm 0.00 in/hr0.0 mm/hr 0.00 in0.0 mm
06:03 AM 58.1°F14.5°C 50.5°F10.3°C 76% Calm Calm 1.8 mph2.9 kmh 28.99 in981.7 mb 0.00 in0.0 mm 0.00 in/hr0.0 mm/hr 0.00 in0.0 mm
06:02 AM 58.1°F14.5°C 50.5°F10.3°C 76% Calm Calm 2.7 mph4.3 kmh 28.99 in981.7 mb 0.00 in0.0 mm 0.00 in/hr0.0 mm/hr 0.00 in0.0 mm
06:01 AM 58.3°F14.6°C 50.7°F10.4°C 76% Calm Calm 3.4 mph5.5 kmh 28.99 in981.7 mb 0.00 in0.0 mm 0.00 in/hr0.0 mm/hr 0.00 in0.0 mm
06:00 AM 58.3°F14.6°C 51.1°F10.6°C 77% Calm Calm 3.4 mph5.5 kmh 28.99 in981.7 mb 0.00 in0.0 mm 0.00 in/hr0.0 mm/hr 0.00 in0.0 mm
05:59 AM 58.3°F14.6°C 51.1°F10.6°C 77% 1.1 mph NNE1.8 kmh NNE 3.4 mph5.5 kmh 28.99 in981.7 mb 0.00 in0.0 mm 0.00 in/hr0.0 mm/hr 0.00 in0.0 mm
05:58 AM 58.3°F14.6°C 50.7°F10.4°C 76% 0.7 mph NNE1.1 kmh NNE 3.4 mph5.5 kmh 28.99 in981.7 mb 0.00 in0.0 mm 0.00 in/hr0.0 mm/hr 0.00 in0.0 mm
05:57 AM 58.3°F14.6°C 50.7°F10.4°C 76% Calm Calm 3.4 mph5.5 kmh 28.99 in981.7 mb 0.00 in0.0 mm 0.00 in/hr0.0 mm/hr 0.00 in0.0 mm
05:56 AM 58.3°F14.6°C 50.7°F10.4°C 76% Calm Calm 3.8 mph6.1 kmh 28.99 in981.7 mb 0.00 in0.0 mm 0.00 in/hr0.0 mm/hr 0.00 in0.0 mm
05:55 AM 58.3°F14.6°C 50.7°F10.4°C 76% Calm Calm 4.5 mph7.2 kmh 28.99 in981.7 mb 0.00 in0.0 mm 0.00 in/hr0.0 mm/hr 0.00 in0.0 mm
05:54 AM 58.5°F14.7°C 50.9°F10.5°C 76% Calm Calm 4.5 mph7.2 kmh 28.99 in981.7 mb 0.00 in0.0 mm 0.00 in/hr0.0 mm/hr 0.00 in0.0 mm
05:53 AM 58.5°F14.7°C 50.9°F10.5°C 76% 2.2 mph NNE3.5 kmh NNE 4.5 mph7.2 kmh 28.99 in981.7 mb 0.00 in0.0 mm 0.00 in/hr0.0 mm/hr 0.00 in0.0 mm
05:52 AM 58.5°F14.7°C 50.9°F10.5°C 76% 2.5 mph NNE4.0 kmh NNE 4.5 mph7.2 kmh 28.99 in981.7 mb 0.00 in0.0 mm 0.00 in/hr0.0 mm/hr 0.00 in0.0 mm
05:51 AM 58.6°F14.8°C 51.1°F10.6°C 76% 1.6 mph NNE2.6 kmh NNE 4.5 mph7.2 kmh 28.99 in981.7 mb 0.00 in0.0 mm 0.00 in/hr0.0 mm/hr 0.00 in0.0 mm
05:50 AM 58.6°F14.8°C 50.7°F10.4°C 75% 2.9 mph NNE4.7 kmh NNE 4.5 mph7.2 kmh 28.99 in981.7 mb 0.00 in0.0 mm 0.00 in/hr0.0 mm/hr 0.00 in0.0 mm
05:49 AM 58.6°F14.8°C 50.7°F10.4°C 75% 1.1 mph NNE1.8 kmh NNE 4.5 mph7.2 kmh 28.99 in981.7 mb 0.00 in0.0 mm 0.00 in/hr0.0 mm/hr 0.00 in0.0 mm
05:48 AM 58.6°F14.8°C 50.7°F10.4°C 75% 2.7 mph NNE4.3 kmh NNE 4.5 mph7.2 kmh 28.99 in981.7 mb 0.00 in0.0 mm 0.00 in/hr0.0 mm/hr 0.00 in0.0 mm
05:47 AM 58.8°F14.9°C 50.5°F10.3°C 74% 3.4 mph NNE5.5 kmh NNE 4.5 mph7.2 kmh 28.99 in981.7 mb 0.00 in0.0 mm 0.00 in/hr0.0 mm/hr 0.00 in0.0 mm
05:46 AM 58.8°F14.9°C 50.5°F10.3°C 74% 3.8 mph NNE6.1 kmh NNE 4.5 mph7.2 kmh 28.99 in981.7 mb 0.00 in0.0 mm 0.00 in/hr0.0 mm/hr 0.00 in0.0 mm
05:45 AM 58.8°F14.9°C 50.2°F10.1°C 73% 4.5 mph NNE7.2 kmh NNE 4.5 mph7.2 kmh 28.99 in981.7 mb 0.00 in0.0 mm 0.00 in/hr0.0 mm/hr 0.00 in0.0 mm
05:44 AM 58.8°F14.9°C 50.2°F10.1°C 73% 2.9 mph NNE4.7 kmh NNE 2.9 mph4.7 kmh 28.99 in981.7 mb 0.00 in0.0 mm 0.00 in/hr0.0 mm/hr 0.00 in0.0 mm
05:43 AM 58.8°F14.9°C 49.8°F9.9°C 72% Calm Calm -- 28.99 in981.7 mb 0.00 in0.0 mm 0.00 in/hr0.0 mm/hr 0.00 in0.0 mm
05:42 AM 58.8°F14.9°C 49.8°F9.9°C 72% Calm Calm -- 28.99 in981.7 mb 0.00 in0.0 mm 0.00 in/hr0.0 mm/hr 0.00 in0.0 mm
05:41 AM 58.8°F14.9°C 49.8°F9.9°C 72% Calm Calm -- 28.99 in981.7 mb 0.00 in0.0 mm 0.00 in/hr0.0 mm/hr 0.00 in0.0 mm
05:40 AM 58.8°F14.9°C 49.8°F9.9°C 72% Calm Calm -- 28.99 in981.7 mb 0.00 in0.0 mm 0.00 in/hr0.0 mm/hr 0.00 in0.0 mm
05:39 AM 58.8°F14.9°C 49.8°F9.9°C 72% Calm Calm -- 28.99 in981.7 mb 0.00 in0.0 mm 0.00 in/hr0.0 mm/hr 0.00 in0.0 mm
05:38 AM 58.8°F14.9°C 49.8°F9.9°C 72% Calm Calm -- 28.99 in981.7 mb 0.00 in0.0 mm 0.00 in/hr0.0 mm/hr 0.00 in0.0 mm
05:37 AM 58.8°F14.9°C 49.8°F9.9°C 72% Calm Calm -- 28.99 in981.7 mb 0.00 in0.0 mm 0.00 in/hr0.0 mm/hr 0.00 in0.0 mm
05:36 AM 58.8°F14.9°C 49.8°F9.9°C 72% Calm Calm -- 28.99 in981.7 mb 0.00 in0.0 mm 0.00 in/hr0.0 mm/hr 0.00 in0.0 mm
05:35 AM 58.8°F14.9°C 49.8°F9.9°C 72% Calm Calm -- 28.99 in981.7 mb 0.00 in0.0 mm 0.00 in/hr0.0 mm/hr 0.00 in0.0 mm
05:34 AM 58.8°F14.9°C 49.8°F9.9°C 72% Calm Calm -- 28.99 in981.7 mb 0.00 in0.0 mm 0.00 in/hr0.0 mm/hr 0.00 in0.0 mm
05:33 AM 58.8°F14.9°C 49.8°F9.9°C 72% Calm Calm -- 28.99 in981.7 mb 0.00 in0.0 mm 0.00 in/hr0.0 mm/hr 0.00 in0.0 mm
05:32 AM 58.8°F14.9°C 49.8°F9.9°C 72% Calm Calm -- 28.99 in981.7 mb 0.00 in0.0 mm 0.00 in/hr0.0 mm/hr 0.00 in0.0 mm
05:31 AM 59.0°F15.0°C 50.0°F10.0°C 72% Calm Calm -- 28.99 in981.7 mb 0.00 in0.0 mm 0.00 in/hr0.0 mm/hr 0.00 in0.0 mm
05:30 AM 59.0°F15.0°C 50.0°F10.0°C 72% Calm Calm -- 28.99 in981.7 mb 0.00 in0.0 mm 0.00 in/hr0.0 mm/hr 0.00 in0.0 mm
05:29 AM 59.2°F15.1°C 50.2°F10.1°C 72% Calm Calm -- 28.99 in981.7 mb 0.00 in0.0 mm 0.00 in/hr0.0 mm/hr 0.00 in0.0 mm
05:28 AM 59.2°F15.1°C 50.2°F10.1°C 72% Calm Calm -- 28.99 in981.7 mb 0.00 in0.0 mm 0.00 in/hr0.0 mm/hr 0.00 in0.0 mm
05:27 AM 59.2°F15.1°C 50.2°F10.1°C 72% Calm Calm -- 28.99 in981.7 mb 0.00 in0.0 mm 0.00 in/hr0.0 mm/hr 0.00 in0.0 mm
05:26 AM 59.4°F15.2°C 50.4°F10.2°C 72% Calm Calm -- 28.99 in981.7 mb 0.00 in0.0 mm 0.00 in/hr0.0 mm/hr 0.00 in0.0 mm
05:25 AM 59.4°F15.2°C 50.4°F10.2°C 72% Calm Calm -- 28.99 in981.7 mb 0.00 in0.0 mm 0.00 in/hr0.0 mm/hr 0.00 in0.0 mm
05:24 AM 59.4°F15.2°C 50.4°F10.2°C 72% Calm Calm -- 28.99 in981.7 mb 0.00 in0.0 mm 0.00 in/hr0.0 mm/hr 0.00 in0.0 mm
05:23 AM 59.4°F15.2°C 50.4°F10.2°C 72% Calm Calm -- 28.99 in981.7 mb 0.00 in0.0 mm 0.00 in/hr0.0 mm/hr 0.00 in0.0 mm
05:22 AM 59.5°F15.3°C 50.5°F10.3°C 72% Calm Calm -- 28.99 in981.7 mb 0.00 in0.0 mm 0.00 in/hr0.0 mm/hr 0.00 in0.0 mm
05:21 AM 59.5°F15.3°C 50.5°F10.3°C 72% Calm Calm -- 28.99 in981.7 mb 0.00 in0.0 mm 0.00 in/hr0.0 mm/hr 0.00 in0.0 mm
05:20 AM 59.5°F15.3°C 50.5°F10.3°C 72% Calm Calm -- 28.99 in981.7 mb 0.00 in0.0 mm 0.00 in/hr0.0 mm/hr 0.00 in0.0 mm
05:19 AM 59.5°F15.3°C 50.5°F10.3°C 72% Calm Calm -- 28.99 in981.7 mb 0.00 in0.0 mm 0.00 in/hr0.0 mm/hr 0.00 in0.0 mm
05:18 AM 59.5°F15.3°C 50.9°F10.5°C 73% Calm Calm -- 28.99 in981.7 mb 0.00 in0.0 mm 0.00 in/hr0.0 mm/hr 0.00 in0.0 mm
05:17 AM 59.5°F15.3°C 50.9°F10.5°C 73% Calm Calm -- 28.99 in981.7 mb 0.00 in0.0 mm 0.00 in/hr0.0 mm/hr 0.00 in0.0 mm
05:16 AM 59.5°F15.3°C 50.9°F10.5°C 73% Calm Calm -- 28.99 in981.7 mb 0.00 in0.0 mm 0.00 in/hr0.0 mm/hr 0.00 in0.0 mm
05:15 AM 59.5°F15.3°C 50.9°F10.5°C 73% Calm Calm -- 28.99 in981.7 mb 0.00 in0.0 mm 0.00 in/hr0.0 mm/hr 0.00 in0.0 mm
05:14 AM 59.7°F15.4°C 51.1°F10.6°C 73% Calm Calm -- 28.99 in981.7 mb 0.00 in0.0 mm 0.00 in/hr0.0 mm/hr 0.00 in0.0 mm
05:13 AM 59.7°F15.4°C 51.1°F10.6°C 73% Calm Calm -- 28.99 in981.7 mb 0.00 in0.0 mm 0.00 in/hr0.0 mm/hr 0.00 in0.0 mm
05:12 AM 59.7°F15.4°C 51.1°F10.6°C 73% Calm Calm -- 28.99 in981.7 mb 0.00 in0.0 mm 0.00 in/hr0.0 mm/hr 0.00 in0.0 mm
05:11 AM 59.7°F15.4°C 51.1°F10.6°C 73% Calm Calm -- 28.99 in981.7 mb 0.00 in0.0 mm 0.00 in/hr0.0 mm/hr 0.00 in0.0 mm
05:10 AM 59.7°F15.4°C 51.1°F10.6°C 73% Calm Calm -- 28.99 in981.7 mb 0.00 in0.0 mm 0.00 in/hr0.0 mm/hr 0.00 in0.0 mm
05:09 AM 59.7°F15.4°C 51.1°F10.6°C 73% Calm Calm 2.0 mph3.2 kmh 28.99 in981.7 mb 0.00 in0.0 mm 0.00 in/hr0.0 mm/hr 0.00 in0.0 mm
05:08 AM 59.7°F15.4°C 51.1°F10.6°C 73% Calm Calm 4.0 mph6.4 kmh 28.99 in981.7 mb 0.00 in0.0 mm 0.00 in/hr0.0 mm/hr 0.00 in0.0 mm
05:07 AM 59.7°F15.4°C 51.1°F10.6°C 73% Calm Calm 4.0 mph6.4 kmh 28.99 in981.7 mb 0.00 in0.0 mm 0.00 in/hr0.0 mm/hr 0.00 in0.0 mm
05:06 AM 59.7°F15.4°C 51.1°F10.6°C 73% Calm Calm 4.0 mph6.4 kmh 28.99 in981.7 mb 0.00 in0.0 mm 0.00 in/hr0.0 mm/hr 0.00 in0.0 mm
05:05 AM 59.7°F15.4°C 51.1°F10.6°C 73% Calm Calm 5.1 mph8.2 kmh 28.99 in981.7 mb 0.00 in0.0 mm 0.00 in/hr0.0 mm/hr 0.00 in0.0 mm
05:04 AM 59.7°F15.4°C 51.1°F10.6°C 73% Calm Calm 5.1 mph8.2 kmh 28.99 in981.7 mb 0.00 in0.0 mm 0.00 in/hr0.0 mm/hr 0.00 in0.0 mm
05:03 AM 59.7°F15.4°C 51.1°F10.6°C 73% Calm Calm 5.1 mph8.2 kmh 28.99 in981.7 mb 0.00 in0.0 mm 0.00 in/hr0.0 mm/hr 0.00 in0.0 mm
05:02 AM 59.7°F15.4°C 51.1°F10.6°C 73% Calm Calm 5.1 mph8.2 kmh 28.99 in981.7 mb 0.00 in0.0 mm 0.00 in/hr0.0 mm/hr 0.00 in0.0 mm
05:01 AM 59.7°F15.4°C 51.1°F10.6°C 73% Calm Calm 5.1 mph8.2 kmh 28.98 in981.4 mb 0.00 in0.0 mm 0.00 in/hr0.0 mm/hr 0.00 in0.0 mm
05:00 AM 59.7°F15.4°C 51.1°F10.6°C 73% 1.1 mph SSW1.8 kmh SSW 5.1 mph8.2 kmh 28.98 in981.4 mb 0.00 in0.0 mm 0.00 in/hr0.0 mm/hr 0.00 in0.0 mm
04:59 AM 59.7°F15.4°C 51.1°F10.6°C 73% Calm Calm 5.1 mph8.2 kmh 28.98 in981.4 mb 0.00 in0.0 mm 0.00 in/hr0.0 mm/hr 0.00 in0.0 mm
04:58 AM 59.7°F15.4°C 51.1°F10.6°C 73% 4.0 mph SSW6.4 kmh SSW 5.1 mph8.2 kmh 28.98 in981.4 mb 0.00 in0.0 mm 0.00 in/hr0.0 mm/hr 0.00 in0.0 mm
04:57 AM 59.9°F15.5°C 51.3°F10.7°C 73% 0.4 mph SSW0.6 kmh SSW 5.1 mph8.2 kmh 28.98 in981.4 mb 0.00 in0.0 mm 0.00 in/hr0.0 mm/hr 0.00 in0.0 mm
04:56 AM 59.9°F15.5°C 51.3°F10.7°C 73% 3.1 mph SSW5.0 kmh SSW 5.1 mph8.2 kmh 28.98 in981.4 mb 0.00 in0.0 mm 0.00 in/hr0.0 mm/hr 0.00 in0.0 mm
04:55 AM 59.9°F15.5°C 51.3°F10.7°C 73% 4.9 mph SSW7.9 kmh SSW 5.1 mph8.2 kmh 28.98 in981.4 mb 0.00 in0.0 mm 0.00 in/hr0.0 mm/hr 0.00 in0.0 mm
04:54 AM 59.9°F15.5°C 51.3°F10.7°C 73% 3.6 mph SSW5.8 kmh SSW 5.1 mph8.2 kmh 28.98 in981.4 mb 0.00 in0.0 mm 0.00 in/hr0.0 mm/hr 0.00 in0.0 mm
04:53 AM 59.9°F15.5°C 51.3°F10.7°C 73% 4.9 mph SSW7.9 kmh SSW 5.1 mph8.2 kmh 28.98 in981.4 mb 0.00 in0.0 mm 0.00 in/hr0.0 mm/hr 0.00 in0.0 mm
04:52 AM 59.9°F15.5°C 51.3°F10.7°C 73% 5.1 mph SSW8.2 kmh SSW 5.1 mph8.2 kmh 28.98 in981.4 mb 0.00 in0.0 mm 0.00 in/hr0.0 mm/hr 0.00 in0.0 mm
04:51 AM 59.9°F15.5°C 51.3°F10.7°C 73% 2.7 mph SSW4.3 kmh SSW 5.1 mph8.2 kmh 28.98 in981.4 mb 0.00 in0.0 mm 0.00 in/hr0.0 mm/hr 0.00 in0.0 mm
04:50 AM 59.9°F15.5°C 51.3°F10.7°C 73% 4.0 mph SSW6.4 kmh SSW 5.1 mph8.2 kmh 28.98 in981.4 mb 0.00 in0.0 mm 0.00 in/hr0.0 mm/hr 0.00 in0.0 mm
04:49 AM 59.7°F15.4°C 51.1°F10.6°C 73% 1.8 mph SSW2.9 kmh SSW 5.1 mph8.2 kmh 28.98 in981.4 mb 0.00 in0.0 mm 0.00 in/hr0.0 mm/hr 0.00 in0.0 mm
04:48 AM 59.9°F15.5°C 51.3°F10.7°C 73% 2.0 mph SSW3.2 kmh SSW 5.1 mph8.2 kmh 28.98 in981.4 mb 0.00 in0.0 mm 0.00 in/hr0.0 mm/hr 0.00 in0.0 mm
04:47 AM 59.9°F15.5°C 51.3°F10.7°C 73% 3.8 mph SSW6.1 kmh SSW 5.1 mph8.2 kmh 28.98 in981.4 mb 0.00 in0.0 mm 0.00 in/hr0.0 mm/hr 0.00 in0.0 mm
04:46 AM 59.9°F15.5°C 51.3°F10.7°C 73% 3.8 mph SSW6.1 kmh SSW 5.1 mph8.2 kmh 28.98 in981.4 mb 0.00 in0.0 mm 0.00 in/hr0.0 mm/hr 0.00 in0.0 mm
04:45 AM 59.9°F15.5°C 51.3°F10.7°C 73% 3.6 mph SSW5.8 kmh SSW 4.5 mph7.2 kmh 28.98 in981.4 mb 0.00 in0.0 mm 0.00 in/hr0.0 mm/hr 0.00 in0.0 mm
04:44 AM 59.9°F15.5°C 51.3°F10.7°C 73% 3.4 mph SSW5.5 kmh SSW 4.5 mph7.2 kmh 28.98 in981.4 mb 0.00 in0.0 mm 0.00 in/hr0.0 mm/hr 0.00 in0.0 mm
04:43 AM 59.9°F15.5°C 51.3°F10.7°C 73% 2.9 mph SSW4.7 kmh SSW 4.5 mph7.2 kmh 28.98 in981.4 mb 0.00 in0.0 mm 0.00 in/hr0.0 mm/hr 0.00 in0.0 mm
04:42 AM 59.9°F15.5°C 51.3°F10.7°C 73% 3.4 mph SSW5.5 kmh SSW 4.5 mph7.2 kmh 28.98 in981.4 mb 0.00 in0.0 mm 0.00 in/hr0.0 mm/hr 0.00 in0.0 mm
04:41 AM 59.9°F15.5°C 51.3°F10.7°C 73% 1.6 mph SSW2.6 kmh SSW 4.0 mph6.4 kmh 28.98 in981.4 mb 0.00 in0.0 mm 0.00 in/hr0.0 mm/hr 0.00 in0.0 mm
04:40 AM 59.9°F15.5°C 51.3°F10.7°C 73% 2.9 mph SSW4.7 kmh SSW 4.0 mph6.4 kmh 28.98 in981.4 mb 0.00 in0.0 mm 0.00 in/hr0.0 mm/hr 0.00 in0.0 mm
04:39 AM 59.9°F15.5°C 51.3°F10.7°C 73% 4.0 mph SSW6.4 kmh SSW 4.0 mph6.4 kmh 28.98 in981.4 mb 0.00 in0.0 mm 0.00 in/hr0.0 mm/hr 0.00 in0.0 mm
04:38 AM 59.9°F15.5°C 51.3°F10.7°C 73% 2.5 mph SSW4.0 kmh SSW 3.8 mph6.1 kmh 28.98 in981.4 mb 0.00 in0.0 mm 0.00 in/hr0.0 mm/hr 0.00 in0.0 mm
04:37 AM 59.9°F15.5°C 51.3°F10.7°C 73% 2.2 mph SSW3.5 kmh SSW 3.8 mph6.1 kmh 28.98 in981.4 mb 0.00 in0.0 mm 0.00 in/hr0.0 mm/hr 0.00 in0.0 mm
04:36 AM 59.9°F15.5°C 51.3°F10.7°C 73% Calm Calm 3.6 mph5.8 kmh 28.98 in981.4 mb 0.00 in0.0 mm 0.00 in/hr0.0 mm/hr 0.00 in0.0 mm
04:35 AM 59.9°F15.5°C 51.3°F10.7°C 73% Calm Calm 3.6 mph5.8 kmh 28.98 in981.4 mb 0.00 in0.0 mm 0.00 in/hr0.0 mm/hr 0.00 in0.0 mm
04:34 AM 59.9°F15.5°C 51.3°F10.7°C 73% 0.7 mph SSW1.1 kmh SSW 3.6 mph5.8 kmh 28.98 in981.4 mb 0.00 in0.0 mm 0.00 in/hr0.0 mm/hr 0.00 in0.0 mm
04:33 AM 59.9°F15.5°C 51.3°F10.7°C 73% 1.1 mph SSW1.8 kmh SSW 3.6 mph5.8 kmh 28.98 in981.4 mb 0.00 in0.0 mm 0.00 in/hr0.0 mm/hr 0.00 in0.0 mm
04:32 AM 59.9°F15.5°C 51.3°F10.7°C 73% 1.8 mph SSW2.9 kmh SSW 3.6 mph5.8 kmh 28.98 in981.4 mb 0.00 in0.0 mm 0.00 in/hr0.0 mm/hr 0.00 in0.0 mm
04:31 AM 59.9°F15.5°C 51.3°F10.7°C 73% 2.0 mph SSW3.2 kmh SSW 3.6 mph5.8 kmh 28.98 in981.4 mb 0.00 in0.0 mm 0.00 in/hr0.0 mm/hr 0.00 in0.0 mm
04:30 AM 59.9°F15.5°C 50.9°F10.5°C 72% 2.7 mph SSW4.3 kmh SSW 3.6 mph5.8 kmh 28.98 in981.4 mb 0.00 in0.0 mm 0.00 in/hr0.0 mm/hr 0.00 in0.0 mm
04:29 AM 59.9°F15.5°C 50.9°F10.5°C 72% 3.1 mph SSW5.0 kmh SSW 3.6 mph5.8 kmh 28.98 in981.4 mb 0.00 in0.0 mm 0.00 in/hr0.0 mm/hr 0.00 in0.0 mm
04:28 AM 59.9°F15.5°C 50.9°F10.5°C 72% 1.8 mph SSW2.9 kmh SSW 3.6 mph5.8 kmh 28.98 in981.4 mb 0.00 in0.0 mm 0.00 in/hr0.0 mm/hr 0.00 in0.0 mm
04:27 AM 59.9°F15.5°C 50.9°F10.5°C 72% 2.5 mph SSW4.0 kmh SSW 2.9 mph4.7 kmh 28.98 in981.4 mb 0.00 in0.0 mm 0.00 in/hr0.0 mm/hr 0.00 in0.0 mm
04:26 AM 59.9°F15.5°C 50.9°F10.5°C 72% 0.9 mph SSW1.4 kmh SSW 2.9 mph4.7 kmh 28.98 in981.4 mb 0.00 in0.0 mm 0.00 in/hr0.0 mm/hr 0.00 in0.0 mm
04:25 AM 59.9°F15.5°C 50.9°F10.5°C 72% Calm Calm 2.9 mph4.7 kmh 28.98 in981.4 mb 0.00 in0.0 mm 0.00 in/hr0.0 mm/hr 0.00 in0.0 mm
04:24 AM 59.9°F15.5°C 51.3°F10.7°C 73% 0.9 mph SSW1.4 kmh SSW 2.9 mph4.7 kmh 28.98 in981.4 mb 0.00 in0.0 mm 0.00 in/hr0.0 mm/hr 0.00 in0.0 mm
04:23 AM 60.1°F15.6°C 51.1°F10.6°C 72% 0.7 mph SSW1.1 kmh SSW 2.9 mph4.7 kmh 28.98 in981.4 mb 0.00 in0.0 mm 0.00 in/hr0.0 mm/hr 0.00 in0.0 mm
04:22 AM 59.9°F15.5°C 51.3°F10.7°C 73% 0.4 mph SSW0.6 kmh SSW 2.9 mph4.7 kmh 28.98 in981.4 mb 0.00 in0.0 mm 0.00 in/hr0.0 mm/hr 0.00 in0.0 mm
04:21 AM 60.1°F15.6°C 51.4°F10.8°C 73% 2.5 mph SSW4.0 kmh SSW 2.5 mph4.0 kmh 28.98 in981.4 mb 0.00 in0.0 mm 0.00 in/hr0.0 mm/hr 0.00 in0.0 mm
04:20 AM 59.9°F15.5°C 51.3°F10.7°C 73% 2.0 mph SSW3.2 kmh SSW 2.2 mph3.5 kmh 28.99 in981.7 mb 0.00 in0.0 mm 0.00 in/hr0.0 mm/hr 0.00 in0.0 mm
04:19 AM 60.1°F15.6°C 51.4°F10.8°C 73% Calm Calm 2.2 mph3.5 kmh 28.98 in981.4 mb 0.00 in0.0 mm 0.00 in/hr0.0 mm/hr 0.00 in0.0 mm
04:18 AM 59.9°F15.5°C 51.3°F10.7°C 73% 0.7 mph SSW1.1 kmh SSW 2.2 mph3.5 kmh 28.98 in981.4 mb 0.00 in0.0 mm 0.00 in/hr0.0 mm/hr 0.00 in0.0 mm
04:17 AM 60.1°F15.6°C 51.4°F10.8°C 73% 1.1 mph SSW1.8 kmh SSW 1.8 mph2.9 kmh 28.98 in981.4 mb 0.00 in0.0 mm 0.00 in/hr0.0 mm/hr 0.00 in0.0 mm
04:16 AM 60.1°F15.6°C 51.4°F10.8°C 73% 0.7 mph SSW1.1 kmh SSW 1.8 mph2.9 kmh 28.98 in981.4 mb 0.00 in0.0 mm 0.00 in/hr0.0 mm/hr 0.00 in0.0 mm
04:15 AM 60.1°F15.6°C 51.4°F10.8°C 73% 1.3 mph SSW2.1 kmh SSW 1.8 mph2.9 kmh 28.98 in981.4 mb 0.00 in0.0 mm 0.00 in/hr0.0 mm/hr 0.00 in0.0 mm
04:14 AM 60.1°F15.6°C 51.4°F10.8°C 73% Calm Calm 1.8 mph2.9 kmh 28.98 in981.4 mb 0.00 in0.0 mm 0.00 in/hr0.0 mm/hr 0.00 in0.0 mm
04:13 AM 60.1°F15.6°C 51.4°F10.8°C 73% 0.4 mph SSW0.6 kmh SSW 2.9 mph4.7 kmh 28.98 in981.4 mb 0.00 in0.0 mm 0.00 in/hr0.0 mm/hr 0.00 in0.0 mm
04:12 AM 60.1°F15.6°C 51.4°F10.8°C 73% Calm Calm 2.9 mph4.7 kmh 28.98 in981.4 mb 0.00 in0.0 mm 0.00 in/hr0.0 mm/hr 0.00 in0.0 mm
04:11 AM 60.1°F15.6°C 51.4°F10.8°C 73% Calm Calm 3.1 mph5.0 kmh 28.98 in981.4 mb 0.00 in0.0 mm 0.00 in/hr0.0 mm/hr 0.00 in0.0 mm
04:10 AM 60.1°F15.6°C 51.4°F10.8°C 73% Calm Calm 4.3 mph6.9 kmh 28.98 in981.4 mb 0.00 in0.0 mm 0.00 in/hr0.0 mm/hr 0.00 in0.0 mm
04:09 AM 60.1°F15.6°C 51.4°F10.8°C 73% Calm Calm 4.3 mph6.9 kmh 28.98 in981.4 mb 0.00 in0.0 mm 0.00 in/hr0.0 mm/hr 0.00 in0.0 mm
04:08 AM 60.1°F15.6°C 51.4°F10.8°C 73% Calm Calm 4.3 mph6.9 kmh 28.98 in981.4 mb 0.00 in0.0 mm 0.00 in/hr0.0 mm/hr 0.00 in0.0 mm
04:07 AM 60.1°F15.6°C 51.4°F10.8°C 73% Calm Calm 4.3 mph6.9 kmh 28.98 in981.4 mb 0.00 in0.0 mm 0.00 in/hr0.0 mm/hr 0.00 in0.0 mm
04:06 AM 60.1°F15.6°C 51.4°F10.8°C 73% Calm Calm 4.3 mph6.9 kmh 28.98 in981.4 mb 0.00 in0.0 mm 0.00 in/hr0.0 mm/hr 0.00 in0.0 mm
04:05 AM 60.1°F15.6°C 51.4°F10.8°C 73% Calm Calm 4.3 mph6.9 kmh 28.98 in981.4 mb 0.00 in0.0 mm 0.00 in/hr0.0 mm/hr 0.00 in0.0 mm
04:04 AM 60.1°F15.6°C 51.4°F10.8°C 73% Calm Calm 4.7 mph7.6 kmh 28.98 in981.4 mb 0.00 in0.0 mm 0.00 in/hr0.0 mm/hr 0.00 in0.0 mm
04:03 AM 60.1°F15.6°C 51.4°F10.8°C 73% 1.8 mph SSW2.9 kmh SSW 4.7 mph7.6 kmh 28.98 in981.4 mb 0.00 in0.0 mm 0.00 in/hr0.0 mm/hr 0.00 in0.0 mm
04:02 AM 60.1°F15.6°C 51.4°F10.8°C 73% 2.2 mph SSW3.5 kmh SSW 4.7 mph7.6 kmh 28.98 in981.4 mb 0.00 in0.0 mm 0.00 in/hr0.0 mm/hr 0.00 in0.0 mm
04:01 AM 60.1°F15.6°C 51.4°F10.8°C 73% 4.3 mph SSW6.9 kmh SSW 4.7 mph7.6 kmh 28.98 in981.4 mb 0.00 in0.0 mm 0.00 in/hr0.0 mm/hr 0.00 in0.0 mm
04:00 AM 60.1°F15.6°C 51.4°F10.8°C 73% 2.9 mph SSW4.7 kmh SSW 4.7 mph7.6 kmh 28.98 in981.4 mb 0.00 in0.0 mm 0.00 in/hr0.0 mm/hr 0.00 in0.0 mm
03:59 AM 60.1°F15.6°C 51.4°F10.8°C 73% 0.7 mph SSW1.1 kmh SSW 5.1 mph8.2 kmh 28.98 in981.4 mb 0.00 in0.0 mm 0.00 in/hr0.0 mm/hr 0.00 in0.0 mm
03:58 AM 60.1°F15.6°C 51.4°F10.8°C 73% 0.4 mph SSW0.6 kmh SSW 5.1 mph8.2 kmh 28.98 in981.4 mb 0.00 in0.0 mm 0.00 in/hr0.0 mm/hr 0.00 in0.0 mm
03:57 AM 60.1°F15.6°C 51.4°F10.8°C 73% 2.5 mph SSW4.0 kmh SSW 5.1 mph8.2 kmh 28.98 in981.4 mb 0.00 in0.0 mm 0.00 in/hr0.0 mm/hr 0.00 in0.0 mm
03:56 AM 60.1°F15.6°C 51.4°F10.8°C 73% 3.6 mph SSW5.8 kmh SSW 5.1 mph8.2 kmh 28.98 in981.4 mb 0.00 in0.0 mm 0.00 in/hr0.0 mm/hr 0.00 in0.0 mm
03:55 AM 60.1°F15.6°C 51.4°F10.8°C 73% 3.4 mph SSW5.5 kmh SSW 5.1 mph8.2 kmh 28.98 in981.4 mb 0.00 in0.0 mm 0.00 in/hr0.0 mm/hr 0.00 in0.0 mm
03:54 AM 60.1°F15.6°C 51.4°F10.8°C 73% 3.1 mph SSW5.0 kmh SSW 5.1 mph8.2 kmh 28.98 in981.4 mb 0.00 in0.0 mm 0.00 in/hr0.0 mm/hr 0.00 in0.0 mm
03:53 AM 60.1°F15.6°C 51.4°F10.8°C 73% 4.3 mph SSW6.9 kmh SSW 5.1 mph8.2 kmh 28.98 in981.4 mb 0.00 in0.0 mm 0.00 in/hr0.0 mm/hr 0.00 in0.0 mm
03:52 AM 60.1°F15.6°C 51.4°F10.8°C 73% 2.9 mph SW4.7 kmh SW 5.1 mph8.2 kmh 28.98 in981.4 mb 0.00 in0.0 mm 0.00 in/hr0.0 mm/hr 0.00 in0.0 mm
03:51 AM 60.1°F15.6°C 51.4°F10.8°C 73% 2.2 mph SSW3.5 kmh SSW 5.1 mph8.2 kmh 28.98 in981.4 mb 0.00 in0.0 mm 0.00 in/hr0.0 mm/hr 0.00 in0.0 mm
03:50 AM 60.1°F15.6°C 51.4°F10.8°C 73% 2.5 mph SSW4.0 kmh SSW 5.1 mph8.2 kmh 28.98 in981.4 mb 0.00 in0.0 mm 0.00 in/hr0.0 mm/hr 0.00 in0.0 mm
03:49 AM 60.1°F15.6°C 51.4°F10.8°C 73% 2.9 mph SSW4.7 kmh SSW 4.5 mph7.2 kmh 28.98 in981.4 mb 0.00 in0.0 mm 0.00 in/hr0.0 mm/hr 0.00 in0.0 mm
03:48 AM 60.1°F15.6°C 51.4°F10.8°C 73% 2.7 mph SSW4.3 kmh SSW 4.0 mph6.4 kmh 28.98 in981.4 mb 0.00 in0.0 mm 0.00 in/hr0.0 mm/hr 0.00 in0.0 mm
03:47 AM 60.1°F15.6°C 51.4°F10.8°C 73% Calm Calm 4.0 mph6.4 kmh 28.98 in981.4 mb 0.00 in0.0 mm 0.00 in/hr0.0 mm/hr 0.00 in0.0 mm
03:46 AM 60.1°F15.6°C 51.4°F10.8°C 73% 3.6 mph SSW5.8 kmh SSW 4.0 mph6.4 kmh 28.98 in981.4 mb 0.00 in0.0 mm 0.00 in/hr0.0 mm/hr 0.00 in0.0 mm
03:45 AM 60.1°F15.6°C 51.4°F10.8°C 73% 1.8 mph SSW2.9 kmh SSW 4.0 mph6.4 kmh 28.98 in981.4 mb 0.00 in0.0 mm 0.00 in/hr0.0 mm/hr 0.00 in0.0 mm
03:44 AM 60.1°F15.6°C 51.4°F10.8°C 73% 2.2 mph SSW3.5 kmh SSW 3.6 mph5.8 kmh 28.98 in981.4 mb 0.00 in0.0 mm 0.00 in/hr0.0 mm/hr 0.00 in0.0 mm
03:43 AM 60.1°F15.6°C 51.4°F10.8°C 73% 2.0 mph SSW3.2 kmh SSW 3.6 mph5.8 kmh 28.99 in981.7 mb 0.00 in0.0 mm 0.00 in/hr0.0 mm/hr 0.00 in0.0 mm
03:42 AM 60.1°F15.6°C 51.4°F10.8°C 73% 2.2 mph SSW3.5 kmh SSW 3.6 mph5.8 kmh 28.99 in981.7 mb 0.00 in0.0 mm 0.00 in/hr0.0 mm/hr 0.00 in0.0 mm
03:41 AM 60.1°F15.6°C 51.4°F10.8°C 73% 1.8 mph SSW2.9 kmh SSW 3.4 mph5.5 kmh 28.99 in981.7 mb 0.00 in0.0 mm 0.00 in/hr0.0 mm/hr 0.00 in0.0 mm
03:40 AM 60.1°F15.6°C 51.4°F10.8°C 73% 0.2 mph SSW0.3 kmh SSW 3.4 mph5.5 kmh 28.99 in981.7 mb 0.00 in0.0 mm 0.00 in/hr0.0 mm/hr 0.00 in0.0 mm
03:39 AM 60.1°F15.6°C 51.4°F10.8°C 73% Calm Calm 3.4 mph5.5 kmh 28.99 in981.7 mb 0.00 in0.0 mm 0.00 in/hr0.0 mm/hr 0.00 in0.0 mm
03:38 AM 60.1°F15.6°C 51.4°F10.8°C 73% 1.3 mph SSW2.1 kmh SSW 3.4 mph5.5 kmh 28.99 in981.7 mb 0.00 in0.0 mm 0.00 in/hr0.0 mm/hr 0.00 in0.0 mm
03:37 AM 60.1°F15.6°C 51.4°F10.8°C 73% 0.4 mph SSW0.6 kmh SSW 3.4 mph5.5 kmh 28.99 in981.7 mb 0.00 in0.0 mm 0.00 in/hr0.0 mm/hr 0.00 in0.0 mm
03:36 AM 60.1°F15.6°C 51.4°F10.8°C 73% 2.2 mph SSW3.5 kmh SSW 3.4 mph5.5 kmh 28.99 in981.7 mb 0.00 in0.0 mm 0.00 in/hr0.0 mm/hr 0.00 in0.0 mm
03:35 AM 60.1°F15.6°C 51.4°F10.8°C 73% 2.7 mph SSW4.3 kmh SSW 3.4 mph5.5 kmh 28.99 in981.7 mb 0.00 in0.0 mm 0.00 in/hr0.0 mm/hr 0.00 in0.0 mm
03:34 AM 60.1°F15.6°C 51.4°F10.8°C 73% 1.1 mph SSW1.8 kmh SSW 3.4 mph5.5 kmh 28.99 in981.7 mb 0.00 in0.0 mm 0.00 in/hr0.0 mm/hr 0.00 in0.0 mm
03:33 AM 60.1°F15.6°C 51.4°F10.8°C 73% Calm Calm 3.4 mph5.5 kmh 28.99 in981.7 mb 0.00 in0.0 mm 0.00 in/hr0.0 mm/hr 0.00 in0.0 mm
03:32 AM 60.1°F15.6°C 51.4°F10.8°C 73% 1.6 mph SSW2.6 kmh SSW 3.4 mph5.5 kmh 28.99 in981.7 mb 0.00 in0.0 mm 0.00 in/hr0.0 mm/hr 0.00 in0.0 mm
03:31 AM 60.1°F15.6°C 51.4°F10.8°C 73% 1.8 mph SSW2.9 kmh SSW 3.4 mph5.5 kmh 28.99 in981.7 mb 0.00 in0.0 mm 0.00 in/hr0.0 mm/hr 0.00 in0.0 mm
03:30 AM 60.1°F15.6°C 51.4°F10.8°C 73% 1.3 mph SSW2.1 kmh SSW 1.3 mph2.1 kmh 28.99 in981.7 mb 0.00 in0.0 mm 0.00 in/hr0.0 mm/hr 0.00 in0.0 mm
03:29 AM 60.1°F15.6°C 51.4°F10.8°C 73% Calm Calm -- 28.99 in981.7 mb 0.00 in0.0 mm 0.00 in/hr0.0 mm/hr 0.00 in0.0 mm
03:28 AM 60.1°F15.6°C 51.4°F10.8°C 73% Calm Calm -- 28.99 in981.7 mb 0.00 in0.0 mm 0.00 in/hr0.0 mm/hr 0.00 in0.0 mm
03:27 AM 60.1°F15.6°C 51.4°F10.8°C 73% Calm Calm -- 28.99 in981.7 mb 0.00 in0.0 mm 0.00 in/hr0.0 mm/hr 0.00 in0.0 mm
03:26 AM 60.1°F15.6°C 51.4°F10.8°C 73% Calm Calm -- 28.99 in981.7 mb 0.00 in0.0 mm 0.00 in/hr0.0 mm/hr 0.00 in0.0 mm
03:25 AM 60.1°F15.6°C 51.4°F10.8°C 73% Calm Calm -- 28.99 in981.7 mb 0.00 in0.0 mm 0.00 in/hr0.0 mm/hr 0.00 in0.0 mm
03:24 AM 60.1°F15.6°C 51.4°F10.8°C 73% Calm Calm -- 28.99 in981.7 mb 0.00 in0.0 mm 0.00 in/hr0.0 mm/hr 0.00 in0.0 mm
03:23 AM 60.1°F15.6°C 51.4°F10.8°C 73% Calm Calm -- 28.99 in981.7 mb 0.00 in0.0 mm 0.00 in/hr0.0 mm/hr 0.00 in0.0 mm
03:22 AM 60.1°F15.6°C 51.4°F10.8°C 73% Calm Calm -- 28.99 in981.7 mb 0.00 in0.0 mm 0.00 in/hr0.0 mm/hr 0.00 in0.0 mm
03:21 AM 60.1°F15.6°C 51.4°F10.8°C 73% Calm Calm -- 28.99 in981.7 mb 0.00 in0.0 mm 0.00 in/hr0.0 mm/hr 0.00 in0.0 mm
03:20 AM 60.1°F15.6°C 51.4°F10.8°C 73% Calm Calm -- 28.99 in981.7 mb 0.00 in0.0 mm 0.00 in/hr0.0 mm/hr 0.00 in0.0 mm
03:19 AM 60.1°F15.6°C 51.4°F10.8°C 73% Calm Calm -- 28.99 in981.7 mb 0.00 in0.0 mm 0.00 in/hr0.0 mm/hr 0.00 in0.0 mm
03:18 AM 60.1°F15.6°C 51.4°F10.8°C 73% Calm Calm -- 28.99 in981.7 mb 0.00 in0.0 mm 0.00 in/hr0.0 mm/hr 0.00 in0.0 mm
03:17 AM 60.3°F15.7°C 51.6°F10.9°C 73% Calm Calm -- 28.99 in981.7 mb 0.00 in0.0 mm 0.00 in/hr0.0 mm/hr 0.00 in0.0 mm
03:16 AM 60.3°F15.7°C 51.6°F10.9°C 73% Calm Calm -- 28.99 in981.7 mb 0.00 in0.0 mm 0.00 in/hr0.0 mm/hr 0.00 in0.0 mm
03:15 AM 60.3°F15.7°C 51.6°F10.9°C 73% Calm Calm -- 28.99 in981.7 mb 0.00 in0.0 mm 0.00 in/hr0.0 mm/hr 0.00 in0.0 mm
03:14 AM 60.3°F15.7°C 51.6°F10.9°C 73% Calm Calm -- 28.99 in981.7 mb 0.00 in0.0 mm 0.00 in/hr0.0 mm/hr 0.00 in0.0 mm
03:13 AM 60.4°F15.8°C 51.8°F11.0°C 73% Calm Calm -- 28.99 in981.7 mb 0.00 in0.0 mm 0.00 in/hr0.0 mm/hr 0.00 in0.0 mm
03:12 AM 60.4°F15.8°C 51.8°F11.0°C 73% Calm Calm -- 28.99 in981.7 mb 0.00 in0.0 mm 0.00 in/hr0.0 mm/hr 0.00 in0.0 mm
03:11 AM 60.4°F15.8°C 51.8°F11.0°C 73% Calm Calm -- 28.99 in981.7 mb 0.00 in0.0 mm 0.00 in/hr0.0 mm/hr 0.00 in0.0 mm
03:10 AM 60.4°F15.8°C 51.8°F11.0°C 73% Calm Calm -- 28.99 in981.7 mb 0.00 in0.0 mm 0.00 in/hr0.0 mm/hr 0.00 in0.0 mm
03:09 AM 60.4°F15.8°C 51.8°F11.0°C 73% Calm Calm -- 28.99 in981.7 mb 0.00 in0.0 mm 0.00 in/hr0.0 mm/hr 0.00 in0.0 mm
03:08 AM 60.4°F15.8°C 51.4°F10.8°C 72% Calm Calm -- 28.99 in981.7 mb 0.00 in0.0 mm 0.00 in/hr0.0 mm/hr 0.00 in0.0 mm
03:07 AM 60.4°F15.8°C 51.4°F10.8°C 72% Calm Calm -- 28.99 in981.7 mb 0.00 in0.0 mm 0.00 in/hr0.0 mm/hr 0.00 in0.0 mm
03:06 AM 60.4°F15.8°C 51.4°F10.8°C 72% Calm Calm -- 28.99 in981.7 mb 0.00 in0.0 mm 0.00 in/hr0.0 mm/hr 0.00 in0.0 mm
03:05 AM 60.4°F15.8°C 51.4°F10.8°C 72% Calm Calm -- 28.99 in981.7 mb 0.00 in0.0 mm 0.00 in/hr0.0 mm/hr 0.00 in0.0 mm
03:04 AM 60.4°F15.8°C 51.4°F10.8°C 72% Calm Calm -- 28.99 in981.7 mb 0.00 in0.0 mm 0.00 in/hr0.0 mm/hr 0.00 in0.0 mm
03:03 AM 60.4°F15.8°C 51.4°F10.8°C 72% Calm Calm -- 28.99 in981.7 mb 0.00 in0.0 mm 0.00 in/hr0.0 mm/hr 0.00 in0.0 mm
03:02 AM 60.4°F15.8°C 51.4°F10.8°C 72% Calm Calm -- 28.99 in981.7 mb 0.00 in0.0 mm 0.00 in/hr0.0 mm/hr 0.00 in0.0 mm
03:01 AM 60.4°F15.8°C 51.4°F10.8°C 72% Calm Calm -- 28.99 in981.7 mb 0.00 in0.0 mm 0.00 in/hr0.0 mm/hr 0.00 in0.0 mm
03:00 AM 60.4°F15.8°C 51.4°F10.8°C 72% Calm Calm -- 28.99 in981.7 mb 0.00 in0.0 mm 0.00 in/hr0.0 mm/hr 0.00 in0.0 mm
02:59 AM 60.4°F15.8°C 51.4°F10.8°C 72% Calm Calm -- 28.99 in981.7 mb 0.00 in0.0 mm 0.00 in/hr0.0 mm/hr 0.00 in0.0 mm
02:58 AM 60.4°F15.8°C 51.4°F10.8°C 72% Calm Calm -- 28.99 in981.7 mb 0.00 in0.0 mm 0.00 in/hr0.0 mm/hr 0.00 in0.0 mm
02:57 AM 60.4°F15.8°C 51.4°F10.8°C 72% Calm Calm -- 28.99 in981.7 mb 0.00 in0.0 mm 0.00 in/hr0.0 mm/hr 0.00 in0.0 mm
02:56 AM 60.4°F15.8°C 51.4°F10.8°C 72% Calm Calm -- 28.99 in981.7 mb 0.00 in0.0 mm 0.00 in/hr0.0 mm/hr 0.00 in0.0 mm
02:55 AM 60.4°F15.8°C 51.4°F10.8°C 72% Calm Calm -- 28.99 in981.7 mb 0.00 in0.0 mm 0.00 in/hr0.0 mm/hr 0.00 in0.0 mm
02:54 AM 60.4°F15.8°C 51.4°F10.8°C 72% Calm Calm -- 28.99 in981.7 mb 0.00 in0.0 mm 0.00 in/hr0.0 mm/hr 0.00 in0.0 mm
02:53 AM 60.4°F15.8°C 51.4°F10.8°C 72% Calm Calm -- 28.99 in981.7 mb 0.00 in0.0 mm 0.00 in/hr0.0 mm/hr 0.00 in0.0 mm
02:52 AM 60.4°F15.8°C 51.4°F10.8°C 72% Calm Calm -- 28.99 in981.7 mb 0.00 in0.0 mm 0.00 in/hr0.0 mm/hr 0.00 in0.0 mm
02:51 AM 60.6°F15.9°C 51.6°F10.9°C 72% Calm Calm -- 28.99 in981.7 mb 0.00 in0.0 mm 0.00 in/hr0.0 mm/hr 0.00 in0.0 mm
02:50 AM 60.6°F15.9°C 51.6°F10.9°C 72% Calm Calm -- 28.99 in981.7 mb 0.00 in0.0 mm 0.00 in/hr0.0 mm/hr 0.00 in0.0 mm
02:49 AM 60.6°F15.9°C 51.6°F10.9°C 72% Calm Calm -- 28.99 in981.7 mb 0.00 in0.0 mm 0.00 in/hr0.0 mm/hr 0.00 in0.0 mm
02:48 AM 60.6°F15.9°C 51.6°F10.9°C 72% Calm Calm -- 28.99 in981.7 mb 0.00 in0.0 mm 0.00 in/hr0.0 mm/hr 0.00 in0.0 mm
02:47 AM 60.6°F15.9°C 51.6°F10.9°C 72% Calm Calm -- 29.00 in982.1 mb 0.00 in0.0 mm 0.00 in/hr0.0 mm/hr 0.00 in0.0 mm
02:46 AM 60.6°F15.9°C 51.6°F10.9°C 72% Calm Calm -- 28.99 in981.7 mb 0.00 in0.0 mm 0.00 in/hr0.0 mm/hr 0.00 in0.0 mm
02:45 AM 60.6°F15.9°C 51.6°F10.9°C 72% Calm Calm -- 28.99 in981.7 mb 0.00 in0.0 mm 0.00 in/hr0.0 mm/hr 0.00 in0.0 mm
02:44 AM 60.6°F15.9°C 51.6°F10.9°C 72% Calm Calm -- 28.99 in981.7 mb 0.00 in0.0 mm 0.00 in/hr0.0 mm/hr 0.00 in0.0 mm
02:43 AM 60.6°F15.9°C 51.6°F10.9°C 72% Calm Calm -- 28.99 in981.7 mb 0.00 in0.0 mm 0.00 in/hr0.0 mm/hr 0.00 in0.0 mm
02:42 AM 60.6°F15.9°C 51.6°F10.9°C 72% Calm Calm -- 28.99 in981.7 mb 0.00 in0.0 mm 0.00 in/hr0.0 mm/hr 0.00 in0.0 mm
02:41 AM 60.6°F15.9°C 51.6°F10.9°C 72% Calm Calm -- 28.99 in981.7 mb 0.00 in0.0 mm 0.00 in/hr0.0 mm/hr 0.00 in0.0 mm
02:40 AM 60.6°F15.9°C 51.6°F10.9°C 72% Calm Calm -- 28.99 in981.7 mb 0.00 in0.0 mm 0.00 in/hr0.0 mm/hr 0.00 in0.0 mm
02:39 AM 60.6°F15.9°C 51.6°F10.9°C 72% Calm Calm -- 28.99 in981.7 mb 0.00 in0.0 mm 0.00 in/hr0.0 mm/hr 0.00 in0.0 mm
02:38 AM 60.6°F15.9°C 51.6°F10.9°C 72% Calm Calm -- 28.99 in981.7 mb 0.00 in0.0 mm 0.00 in/hr0.0 mm/hr 0.00 in0.0 mm
02:37 AM 60.8°F16.0°C 51.8°F11.0°C 72% Calm Calm -- 28.99 in981.7 mb 0.00 in0.0 mm 0.00 in/hr0.0 mm/hr 0.00 in0.0 mm
02:36 AM 60.8°F16.0°C 51.8°F11.0°C 72% Calm Calm -- 28.99 in981.7 mb 0.00 in0.0 mm 0.00 in/hr0.0 mm/hr 0.00 in0.0 mm
02:35 AM 61.0°F16.1°C 52.0°F11.1°C 72% Calm Calm -- 28.99 in981.7 mb 0.00 in0.0 mm 0.00 in/hr0.0 mm/hr 0.00 in0.0 mm
02:34 AM 61.0°F16.1°C 52.0°F11.1°C 72% Calm Calm -- 28.99 in981.7 mb 0.00 in0.0 mm 0.00 in/hr0.0 mm/hr 0.00 in0.0 mm
02:33 AM 61.0°F16.1°C 52.0°F11.1°C 72% Calm Calm -- 28.99 in981.7 mb 0.00 in0.0 mm 0.00 in/hr0.0 mm/hr 0.00 in0.0 mm
02:32 AM 61.0°F16.1°C 52.0°F11.1°C 72% Calm Calm -- 28.99 in981.7 mb 0.00 in0.0 mm 0.00 in/hr0.0 mm/hr 0.00 in0.0 mm
02:31 AM 61.0°F16.1°C 52.0°F11.1°C 72% Calm Calm -- 28.99 in981.7 mb 0.00 in0.0 mm 0.00 in/hr0.0 mm/hr 0.00 in0.0 mm
02:30 AM 61.0°F16.1°C 52.0°F11.1°C 72% Calm Calm -- 28.99 in981.7 mb 0.00 in0.0 mm 0.00 in/hr0.0 mm/hr 0.00 in0.0 mm
02:29 AM 61.0°F16.1°C 52.0°F11.1°C 72% Calm Calm -- 28.99 in981.7 mb 0.00 in0.0 mm 0.00 in/hr0.0 mm/hr 0.00 in0.0 mm
02:28 AM 61.0°F16.1°C 52.0°F11.1°C 72% Calm Calm -- 28.99 in981.7 mb 0.00 in0.0 mm 0.00 in/hr0.0 mm/hr 0.00 in0.0 mm
02:27 AM 61.0°F16.1°C 52.0°F11.1°C 72% Calm Calm -- 28.99 in981.7 mb 0.00 in0.0 mm 0.00 in/hr0.0 mm/hr 0.00 in0.0 mm
02:26 AM 61.0°F16.1°C 52.0°F11.1°C 72% Calm Calm -- 28.99 in981.7 mb 0.00 in0.0 mm 0.00 in/hr0.0 mm/hr 0.00 in0.0 mm
02:25 AM 61.0°F16.1°C 52.0°F11.1°C 72% Calm Calm -- 28.99 in981.7 mb 0.00 in0.0 mm 0.00 in/hr0.0 mm/hr 0.00 in0.0 mm
02:24 AM 61.0°F16.1°C 52.0°F11.1°C 72% Calm Calm -- 28.99 in981.7 mb 0.00 in0.0 mm 0.00 in/hr0.0 mm/hr 0.00 in0.0 mm
02:23 AM 61.0°F16.1°C 52.3°F11.3°C 73% Calm Calm -- 28.99 in981.7 mb 0.00 in0.0 mm 0.00 in/hr0.0 mm/hr 0.00 in0.0 mm
02:22 AM 61.2°F16.2°C 52.5°F11.4°C 73% Calm Calm -- 28.99 in981.7 mb 0.00 in0.0 mm 0.00 in/hr0.0 mm/hr 0.00 in0.0 mm
02:21 AM 61.2°F16.2°C 52.5°F11.4°C 73% Calm Calm -- 28.99 in981.7 mb 0.00 in0.0 mm 0.00 in/hr0.0 mm/hr 0.00 in0.0 mm
02:20 AM 61.3°F16.3°C 52.6°F11.4°C 73% Calm Calm -- 28.99 in981.7 mb 0.00 in0.0 mm 0.00 in/hr0.0 mm/hr 0.00 in0.0 mm
02:19 AM 61.3°F16.3°C 52.6°F11.4°C 73% Calm Calm -- 28.99 in981.7 mb 0.00 in0.0 mm 0.00 in/hr0.0 mm/hr 0.00 in0.0 mm
02:18 AM 61.3°F16.3°C 52.6°F11.4°C 73% Calm Calm -- 28.99 in981.7 mb 0.00 in0.0 mm 0.00 in/hr0.0 mm/hr 0.00 in0.0 mm
02:17 AM 61.3°F16.3°C 52.6°F11.4°C 73% Calm Calm -- 28.99 in981.7 mb 0.00 in0.0 mm 0.00 in/hr0.0 mm/hr 0.00 in0.0 mm
02:16 AM 61.3°F16.3°C 52.6°F11.4°C 73% Calm Calm -- 28.99 in981.7 mb 0.00 in0.0 mm 0.00 in/hr0.0 mm/hr 0.00 in0.0 mm
02:15 AM 61.3°F16.3°C 52.6°F11.4°C 73% Calm Calm -- 28.99 in981.7 mb 0.00 in0.0 mm 0.00 in/hr0.0 mm/hr 0.00 in0.0 mm
02:14 AM 61.3°F16.3°C 52.6°F11.4°C 73% Calm Calm -- 28.99 in981.7 mb 0.00 in0.0 mm 0.00 in/hr0.0 mm/hr 0.00 in0.0 mm
02:13 AM 61.5°F16.4°C 52.8°F11.6°C 73% Calm Calm -- 28.99 in981.7 mb 0.00 in0.0 mm 0.00 in/hr0.0 mm/hr 0.00 in0.0 mm
02:12 AM 61.3°F16.3°C 52.6°F11.4°C 73% Calm Calm -- 28.99 in981.7 mb 0.00 in0.0 mm 0.00 in/hr0.0 mm/hr 0.00 in0.0 mm
02:11 AM 61.5°F16.4°C 52.8°F11.6°C 73% Calm Calm -- 28.99 in981.7 mb 0.00 in0.0 mm 0.00 in/hr0.0 mm/hr 0.00 in0.0 mm
02:10 AM 61.5°F16.4°C 52.8°F11.6°C 73% Calm Calm -- 28.99 in981.7 mb 0.00 in0.0 mm 0.00 in/hr0.0 mm/hr 0.00 in0.0 mm
02:09 AM 61.5°F16.4°C 52.8°F11.6°C 73% Calm Calm -- 28.99 in981.7 mb 0.00 in0.0 mm 0.00 in/hr0.0 mm/hr 0.00 in0.0 mm
02:08 AM 61.5°F16.4°C 52.8°F11.6°C 73% Calm Calm -- 28.99 in981.7 mb 0.00 in0.0 mm 0.00 in/hr0.0 mm/hr 0.00 in0.0 mm
02:07 AM 61.5°F16.4°C 52.8°F11.6°C 73% Calm Calm -- 28.99 in981.7 mb 0.00 in0.0 mm 0.00 in/hr0.0 mm/hr 0.00 in0.0 mm
02:06 AM 61.5°F16.4°C 52.8°F11.6°C 73% Calm Calm -- 28.98 in981.4 mb 0.00 in0.0 mm 0.00 in/hr0.0 mm/hr 0.00 in0.0 mm
02:05 AM 61.5°F16.4°C 52.8°F11.6°C 73% Calm Calm -- 28.99 in981.7 mb 0.00 in0.0 mm 0.00 in/hr0.0 mm/hr 0.00 in0.0 mm
02:04 AM 61.5°F16.4°C 52.8°F11.6°C 73% Calm Calm -- 28.99 in981.7 mb 0.00 in0.0 mm 0.00 in/hr0.0 mm/hr 0.00 in0.0 mm
02:03 AM 61.5°F16.4°C 53.2°F11.8°C 74% Calm Calm -- 28.99 in981.7 mb 0.00 in0.0 mm 0.00 in/hr0.0 mm/hr 0.00 in0.0 mm
02:02 AM 61.5°F16.4°C 52.8°F11.6°C 73% Calm Calm -- 28.98 in981.4 mb 0.00 in0.0 mm 0.00 in/hr0.0 mm/hr 0.00 in0.0 mm
02:01 AM 61.5°F16.4°C 52.8°F11.6°C 73% Calm Calm -- 28.99 in981.7 mb 0.00 in0.0 mm 0.00 in/hr0.0 mm/hr 0.00 in0.0 mm
02:00 AM 61.5°F16.4°C 52.8°F11.6°C 73% Calm Calm -- 28.99 in981.7 mb 0.00 in0.0 mm 0.00 in/hr0.0 mm/hr 0.00 in0.0 mm
01:59 AM 61.5°F16.4°C 52.8°F11.6°C 73% Calm Calm -- 28.98 in981.4 mb 0.00 in0.0 mm 0.00 in/hr0.0 mm/hr 0.00 in0.0 mm
01:58 AM 61.5°F16.4°C 52.8°F11.6°C 73% Calm Calm -- 28.98 in981.4 mb 0.00 in0.0 mm 0.00 in/hr0.0 mm/hr 0.00 in0.0 mm
01:57 AM 61.5°F16.4°C 52.8°F11.6°C 73% Calm Calm -- 28.98 in981.4 mb 0.00 in0.0 mm 0.00 in/hr0.0 mm/hr 0.00 in0.0 mm
01:56 AM 61.5°F16.4°C 52.8°F11.6°C 73% Calm Calm -- 28.98 in981.4 mb 0.00 in0.0 mm 0.00 in/hr0.0 mm/hr 0.00 in0.0 mm
01:55 AM 61.5°F16.4°C 52.8°F11.6°C 73% Calm Calm -- 28.98 in981.4 mb 0.00 in0.0 mm 0.00 in/hr0.0 mm/hr 0.00 in0.0 mm
01:54 AM 61.5°F16.4°C 52.8°F11.6°C 73% Calm Calm -- 28.98 in981.4 mb 0.00 in0.0 mm 0.00 in/hr0.0 mm/hr 0.00 in0.0 mm
01:53 AM 61.7°F16.5°C 53.0°F11.7°C 73% Calm Calm -- 28.98 in981.4 mb 0.00 in0.0 mm 0.00 in/hr0.0 mm/hr 0.00 in0.0 mm
01:52 AM 61.7°F16.5°C 53.0°F11.7°C 73% Calm Calm -- 28.98 in981.4 mb 0.00 in0.0 mm 0.00 in/hr0.0 mm/hr 0.00 in0.0 mm
01:51 AM 61.7°F16.5°C 53.0°F11.7°C 73% Calm Calm -- 28.98 in981.4 mb 0.00 in0.0 mm 0.00 in/hr0.0 mm/hr 0.00 in0.0 mm
01:50 AM 61.7°F16.5°C 53.0°F11.7°C 73% Calm Calm -- 28.98 in981.4 mb 0.00 in0.0 mm 0.00 in/hr0.0 mm/hr 0.00 in0.0 mm
01:49 AM 61.7°F16.5°C 53.0°F11.7°C 73% Calm Calm -- 28.98 in981.4 mb 0.00 in0.0 mm 0.00 in/hr0.0 mm/hr 0.00 in0.0 mm
01:48 AM 61.7°F16.5°C 53.0°F11.7°C 73% Calm Calm -- 28.98 in981.4 mb 0.00 in0.0 mm 0.00 in/hr0.0 mm/hr 0.00 in0.0 mm
01:47 AM 61.7°F16.5°C 53.0°F11.7°C 73% Calm Calm -- 28.98 in981.4 mb 0.00 in0.0 mm 0.00 in/hr0.0 mm/hr 0.00 in0.0 mm
01:46 AM 61.7°F16.5°C 53.3°F11.8°C 74% Calm Calm -- 28.98 in981.4 mb 0.00 in0.0 mm 0.00 in/hr0.0 mm/hr 0.00 in0.0 mm
01:45 AM 61.7°F16.5°C 53.3°F11.8°C 74% Calm Calm -- 28.98 in981.4 mb 0.00 in0.0 mm 0.00 in/hr0.0 mm/hr 0.00 in0.0 mm
01:44 AM 61.7°F16.5°C 53.3°F11.8°C 74% Calm Calm -- 28.98 in981.4 mb 0.00 in0.0 mm 0.00 in/hr0.0 mm/hr 0.00 in0.0 mm
01:43 AM 61.7°F16.5°C 53.3°F11.8°C 74% Calm Calm -- 28.98 in981.4 mb 0.00 in0.0 mm 0.00 in/hr0.0 mm/hr 0.00 in0.0 mm
01:42 AM 61.9°F16.6°C 53.5°F11.9°C 74% Calm Calm -- 28.98 in981.4 mb 0.00 in0.0 mm 0.00 in/hr0.0 mm/hr 0.00 in0.0 mm
01:41 AM 61.9°F16.6°C 53.5°F11.9°C 74% Calm Calm 1.3 mph2.1 kmh 28.98 in981.4 mb 0.00 in0.0 mm 0.00 in/hr0.0 mm/hr 0.00 in0.0 mm
01:40 AM 61.9°F16.6°C 53.5°F11.9°C 74% Calm Calm 1.6 mph2.6 kmh 28.98 in981.4 mb 0.00 in0.0 mm 0.00 in/hr0.0 mm/hr 0.00 in0.0 mm
01:39 AM 61.9°F16.6°C 53.5°F11.9°C 74% Calm Calm 1.6 mph2.6 kmh 28.98 in981.4 mb 0.00 in0.0 mm 0.00 in/hr0.0 mm/hr 0.00 in0.0 mm
01:38 AM 61.9°F16.6°C 53.9°F12.2°C 75% Calm Calm 1.6 mph2.6 kmh 28.98 in981.4 mb 0.00 in0.0 mm 0.00 in/hr0.0 mm/hr 0.00 in0.0 mm
01:37 AM 61.9°F16.6°C 53.9°F12.2°C 75% Calm Calm 1.6 mph2.6 kmh 28.98 in981.4 mb 0.00 in0.0 mm 0.00 in/hr0.0 mm/hr 0.00 in0.0 mm
01:36 AM 61.9°F16.6°C 53.9°F12.2°C 75% Calm Calm 1.6 mph2.6 kmh 28.98 in981.4 mb 0.00 in0.0 mm 0.00 in/hr0.0 mm/hr 0.00 in0.0 mm
01:35 AM 61.9°F16.6°C 54.2°F12.3°C 76% Calm Calm 1.6 mph2.6 kmh 28.98 in981.4 mb 0.00 in0.0 mm 0.00 in/hr0.0 mm/hr 0.00 in0.0 mm
01:34 AM 62.1°F16.7°C 54.4°F12.4°C 76% Calm Calm 1.6 mph2.6 kmh 28.98 in981.4 mb 0.00 in0.0 mm 0.00 in/hr0.0 mm/hr 0.00 in0.0 mm
01:33 AM 62.1°F16.7°C 54.4°F12.4°C 76% Calm Calm 1.6 mph2.6 kmh 28.98 in981.4 mb 0.00 in0.0 mm 0.00 in/hr0.0 mm/hr 0.00 in0.0 mm
01:32 AM 62.1°F16.7°C 54.4°F12.4°C 76% Calm Calm 1.6 mph2.6 kmh 28.98 in981.4 mb 0.00 in0.0 mm 0.00 in/hr0.0 mm/hr 0.00 in0.0 mm
01:31 AM 62.2°F16.8°C 54.2°F12.3°C 75% 1.1 mph NNE1.8 kmh NNE 1.6 mph2.6 kmh 28.98 in981.4 mb 0.00 in0.0 mm 0.00 in/hr0.0 mm/hr 0.00 in0.0 mm
01:30 AM 62.2°F16.8°C 54.2°F12.3°C 75% Calm Calm -- 28.98 in981.4 mb 0.00 in0.0 mm 0.00 in/hr0.0 mm/hr 0.00 in0.0 mm
01:29 AM 62.2°F16.8°C 53.8°F12.1°C 74% Calm Calm -- 28.98 in981.4 mb 0.00 in0.0 mm 0.00 in/hr0.0 mm/hr 0.00 in0.0 mm
01:28 AM 62.2°F16.8°C 53.8°F12.1°C 74% Calm Calm -- 28.98 in981.4 mb 0.00 in0.0 mm 0.00 in/hr0.0 mm/hr 0.00 in0.0 mm
01:27 AM 62.2°F16.8°C 53.8°F12.1°C 74% Calm Calm -- 28.98 in981.4 mb 0.00 in0.0 mm 0.00 in/hr0.0 mm/hr 0.00 in0.0 mm
01:26 AM 62.2°F16.8°C 53.8°F12.1°C 74% Calm Calm -- 28.98 in981.4 mb 0.00 in0.0 mm 0.00 in/hr0.0 mm/hr 0.00 in0.0 mm
01:25 AM 62.2°F16.8°C 54.2°F12.3°C 75% Calm Calm -- 28.98 in981.4 mb 0.00 in0.0 mm 0.00 in/hr0.0 mm/hr 0.00 in0.0 mm
01:24 AM 62.4°F16.9°C 54.3°F12.4°C 75% Calm Calm 3.4 mph5.5 kmh 28.98 in981.4 mb 0.00 in0.0 mm 0.00 in/hr0.0 mm/hr 0.00 in0.0 mm
01:23 AM 62.4°F16.9°C 54.3°F12.4°C 75% Calm Calm 3.4 mph5.5 kmh 28.98 in981.4 mb 0.00 in0.0 mm 0.00 in/hr0.0 mm/hr 0.00 in0.0 mm
01:22 AM 62.4°F16.9°C 54.3°F12.4°C 75% Calm Calm 3.4 mph5.5 kmh 28.98 in981.4 mb 0.00 in0.0 mm 0.00 in/hr0.0 mm/hr 0.00 in0.0 mm
01:21 AM 62.4°F16.9°C 54.3°F12.4°C 75% Calm Calm 3.4 mph5.5 kmh 28.98 in981.4 mb 0.00 in0.0 mm 0.00 in/hr0.0 mm/hr 0.00 in0.0 mm
01:20 AM 62.4°F16.9°C 54.3°F12.4°C 75% Calm Calm 3.4 mph5.5 kmh 28.97 in981.0 mb 0.00 in0.0 mm 0.00 in/hr0.0 mm/hr 0.00 in0.0 mm
01:19 AM 62.4°F16.9°C 54.3°F12.4°C 75% Calm Calm 3.4 mph5.5 kmh 28.98 in981.4 mb 0.00 in0.0 mm 0.00 in/hr0.0 mm/hr 0.00 in0.0 mm
01:18 AM 62.4°F16.9°C 54.3°F12.4°C 75% Calm Calm 3.4 mph5.5 kmh 28.97 in981.0 mb 0.00 in0.0 mm 0.00 in/hr0.0 mm/hr 0.00 in0.0 mm
01:17 AM 62.6°F17.0°C 54.5°F12.5°C 75% Calm Calm 3.4 mph5.5 kmh 28.98 in981.4 mb 0.00 in0.0 mm 0.00 in/hr0.0 mm/hr 0.00 in0.0 mm
01:16 AM 62.6°F17.0°C 54.5°F12.5°C 75% Calm Calm 3.4 mph5.5 kmh 28.97 in981.0 mb 0.00 in0.0 mm 0.00 in/hr0.0 mm/hr 0.00 in0.0 mm
01:15 AM 62.8°F17.1°C 54.7°F12.6°C 75% 2.5 mph N4.0 kmh N 3.4 mph5.5 kmh 28.98 in981.4 mb 0.00 in0.0 mm 0.00 in/hr0.0 mm/hr 0.00 in0.0 mm
01:14 AM 62.8°F17.1°C 54.7°F12.6°C 75% 2.0 mph N3.2 kmh N 2.9 mph4.7 kmh 28.98 in981.4 mb 0.00 in0.0 mm 0.00 in/hr0.0 mm/hr 0.00 in0.0 mm
01:13 AM 62.8°F17.1°C 54.7°F12.6°C 75% Calm Calm 1.3 mph2.1 kmh 28.97 in981.0 mb 0.00 in0.0 mm 0.00 in/hr0.0 mm/hr 0.00 in0.0 mm
01:12 AM 62.8°F17.1°C 54.7°F12.6°C 75% Calm Calm 1.3 mph2.1 kmh 28.97 in981.0 mb 0.00 in0.0 mm 0.00 in/hr0.0 mm/hr 0.00 in0.0 mm
01:11 AM 62.8°F17.1°C 54.3°F12.4°C 74% Calm Calm 1.3 mph2.1 kmh 28.98 in981.4 mb 0.00 in0.0 mm 0.00 in/hr0.0 mm/hr 0.00 in0.0 mm
01:10 AM 62.8°F17.1°C 54.7°F12.6°C 75% Calm Calm 1.3 mph2.1 kmh 28.98 in981.4 mb 0.00 in0.0 mm 0.00 in/hr0.0 mm/hr 0.00 in0.0 mm
01:09 AM 63.0°F17.2°C 54.5°F12.5°C 74% Calm Calm 1.1 mph1.8 kmh 28.98 in981.4 mb 0.00 in0.0 mm 0.00 in/hr0.0 mm/hr 0.00 in0.0 mm
01:08 AM 63.0°F17.2°C 54.5°F12.5°C 74% Calm Calm 4.5 mph7.2 kmh 28.97 in981.0 mb 0.00 in0.0 mm 0.00 in/hr0.0 mm/hr 0.00 in0.0 mm
01:07 AM 63.0°F17.2°C 54.5°F12.5°C 74% Calm Calm 7.2 mph11.6 kmh 28.97 in981.0 mb 0.00 in0.0 mm 0.00 in/hr0.0 mm/hr 0.00 in0.0 mm
01:06 AM 63.0°F17.2°C 54.5°F12.5°C 74% Calm Calm 8.9 mph14.3 kmh 28.98 in981.4 mb 0.00 in0.0 mm 0.00 in/hr0.0 mm/hr 0.00 in0.0 mm
01:05 AM 63.0°F17.2°C 54.5°F12.5°C 74% Calm Calm 8.9 mph14.3 kmh 28.97 in981.0 mb 0.00 in0.0 mm 0.00 in/hr0.0 mm/hr 0.00 in0.0 mm
01:04 AM 63.1°F17.3°C 55.0°F12.8°C 75% Calm Calm 8.9 mph14.3 kmh 28.98 in981.4 mb 0.00 in0.0 mm 0.00 in/hr0.0 mm/hr 0.00 in0.0 mm
01:03 AM 63.1°F17.3°C 54.7°F12.6°C 74% Calm Calm 8.9 mph14.3 kmh 28.98 in981.4 mb 0.00 in0.0 mm 0.00 in/hr0.0 mm/hr 0.00 in0.0 mm
01:02 AM 63.1°F17.3°C 55.0°F12.8°C 75% Calm Calm 8.9 mph14.3 kmh 28.98 in981.4 mb 0.00 in0.0 mm 0.00 in/hr0.0 mm/hr 0.00 in0.0 mm
01:01 AM 63.1°F17.3°C 55.0°F12.8°C 75% Calm Calm 8.9 mph14.3 kmh 28.97 in981.0 mb 0.00 in0.0 mm 0.00 in/hr0.0 mm/hr 0.00 in0.0 mm
01:00 AM 63.1°F17.3°C 55.0°F12.8°C 75% Calm Calm 8.9 mph14.3 kmh 28.98 in981.4 mb 0.00 in0.0 mm 0.00 in/hr0.0 mm/hr 0.00 in0.0 mm
12:59 AM 63.1°F17.3°C 55.0°F12.8°C 75% 0.7 mph N1.1 kmh N 8.9 mph14.3 kmh 28.97 in981.0 mb 0.00 in0.0 mm 0.00 in/hr0.0 mm/hr 0.00 in0.0 mm
12:58 AM 63.1°F17.3°C 55.0°F12.8°C 75% 2.9 mph N4.7 kmh N 8.9 mph14.3 kmh 28.97 in981.0 mb 0.00 in0.0 mm 0.00 in/hr0.0 mm/hr 0.00 in0.0 mm
12:57 AM 63.1°F17.3°C 54.7°F12.6°C 74% 7.2 mph N11.6 kmh N 8.9 mph14.3 kmh 28.97 in981.0 mb 0.00 in0.0 mm 0.00 in/hr0.0 mm/hr 0.00 in0.0 mm
12:56 AM 63.1°F17.3°C 54.7°F12.6°C 74% 8.9 mph N14.3 kmh N 8.9 mph14.3 kmh 28.97 in981.0 mb 0.00 in0.0 mm 0.00 in/hr0.0 mm/hr 0.00 in0.0 mm
12:55 AM 63.1°F17.3°C 54.7°F12.6°C 74% 5.4 mph N8.7 kmh N 8.5 mph13.7 kmh 28.97 in981.0 mb 0.00 in0.0 mm 0.00 in/hr0.0 mm/hr 0.00 in0.0 mm
12:54 AM 63.1°F17.3°C 54.7°F12.6°C 74% 7.6 mph N12.2 kmh N 7.6 mph12.2 kmh 28.97 in981.0 mb 0.00 in0.0 mm 0.00 in/hr0.0 mm/hr 0.00 in0.0 mm
12:53 AM 63.1°F17.3°C 54.7°F12.6°C 74% 4.9 mph N7.9 kmh N 7.6 mph12.2 kmh 28.97 in981.0 mb 0.00 in0.0 mm 0.00 in/hr0.0 mm/hr 0.00 in0.0 mm
12:52 AM 63.1°F17.3°C 54.7°F12.6°C 74% Calm Calm 7.6 mph12.2 kmh 28.97 in981.0 mb 0.00 in0.0 mm 0.00 in/hr0.0 mm/hr 0.00 in0.0 mm
12:51 AM 63.3°F17.4°C 54.9°F12.7°C 74% 0.7 mph N1.1 kmh N 7.6 mph12.2 kmh 28.97 in981.0 mb 0.00 in0.0 mm 0.00 in/hr0.0 mm/hr 0.00 in0.0 mm
12:50 AM 63.3°F17.4°C 54.9°F12.7°C 74% Calm Calm 7.6 mph12.2 kmh 28.97 in981.0 mb 0.00 in0.0 mm 0.00 in/hr0.0 mm/hr 0.00 in0.0 mm
12:49 AM 63.3°F17.4°C 54.5°F12.5°C 73% 6.0 mph N9.7 kmh N 7.6 mph12.2 kmh 28.97 in981.0 mb 0.00 in0.0 mm 0.00 in/hr0.0 mm/hr 0.00 in0.0 mm
12:48 AM 63.3°F17.4°C 54.5°F12.5°C 73% 6.9 mph N11.1 kmh N 7.6 mph12.2 kmh 28.97 in981.0 mb 0.00 in0.0 mm 0.00 in/hr0.0 mm/hr 0.00 in0.0 mm
12:47 AM 63.3°F17.4°C 54.5°F12.5°C 73% 7.6 mph N12.2 kmh N 7.6 mph12.2 kmh 28.97 in981.0 mb 0.00 in0.0 mm 0.00 in/hr0.0 mm/hr 0.00 in0.0 mm
12:46 AM 63.3°F17.4°C 54.5°F12.5°C 73% 2.2 mph N3.5 kmh N 4.7 mph7.6 kmh 28.97 in981.0 mb 0.00 in0.0 mm 0.00 in/hr0.0 mm/hr 0.00 in0.0 mm
12:45 AM 63.3°F17.4°C 54.5°F12.5°C 73% 3.6 mph N5.8 kmh N 3.6 mph5.8 kmh 28.96 in980.7 mb 0.00 in0.0 mm 0.00 in/hr0.0 mm/hr 0.00 in0.0 mm
12:44 AM 63.5°F17.5°C 54.7°F12.6°C 73% Calm Calm 2.0 mph3.2 kmh 28.96 in980.7 mb 0.00 in0.0 mm 0.00 in/hr0.0 mm/hr 0.00 in0.0 mm
12:43 AM 63.5°F17.5°C 54.3°F12.4°C 72% Calm Calm 2.0 mph3.2 kmh 28.96 in980.7 mb 0.00 in0.0 mm 0.00 in/hr0.0 mm/hr 0.00 in0.0 mm
12:42 AM 63.5°F17.5°C 54.3°F12.4°C 72% Calm Calm 2.0 mph3.2 kmh 28.96 in980.7 mb 0.00 in0.0 mm 0.00 in/hr0.0 mm/hr 0.00 in0.0 mm
12:41 AM 63.5°F17.5°C 54.3°F12.4°C 72% Calm Calm 2.0 mph3.2 kmh 28.96 in980.7 mb 0.00 in0.0 mm 0.00 in/hr0.0 mm/hr 0.00 in0.0 mm
12:40 AM 63.5°F17.5°C 54.3°F12.4°C 72% Calm Calm 2.0 mph3.2 kmh 28.96 in980.7 mb 0.00 in0.0 mm 0.00 in/hr0.0 mm/hr 0.00 in0.0 mm
12:39 AM 63.5°F17.5°C 54.3°F12.4°C 72% Calm Calm 2.0 mph3.2 kmh 28.96 in980.7 mb 0.00 in0.0 mm 0.00 in/hr0.0 mm/hr 0.00 in0.0 mm
12:38 AM 63.7°F17.6°C 54.5°F12.5°C 72% Calm Calm 2.0 mph3.2 kmh 28.96 in980.7 mb 0.00 in0.0 mm 0.00 in/hr0.0 mm/hr 0.00 in0.0 mm
12:37 AM 63.7°F17.6°C 54.5°F12.5°C 72% Calm Calm 2.0 mph3.2 kmh 28.96 in980.7 mb 0.00 in0.0 mm 0.00 in/hr0.0 mm/hr 0.00 in0.0 mm
12:36 AM 63.7°F17.6°C 54.5°F12.5°C 72% Calm Calm 4.9 mph7.9 kmh 28.96 in980.7 mb 0.00 in0.0 mm 0.00 in/hr0.0 mm/hr 0.00 in0.0 mm
12:35 AM 63.7°F17.6°C 54.5°F12.5°C 72% Calm Calm 5.4 mph8.7 kmh 28.96 in980.7 mb 0.00 in0.0 mm 0.00 in/hr0.0 mm/hr 0.00 in0.0 mm
12:34 AM 63.7°F17.6°C 54.5°F12.5°C 72% Calm Calm 5.8 mph9.3 kmh 28.96 in980.7 mb 0.00 in0.0 mm 0.00 in/hr0.0 mm/hr 0.00 in0.0 mm
12:33 AM 63.7°F17.6°C 54.5°F12.5°C 72% Calm Calm 5.8 mph9.3 kmh 28.96 in980.7 mb 0.00 in0.0 mm 0.00 in/hr0.0 mm/hr 0.00 in0.0 mm
12:32 AM 63.7°F17.6°C 54.5°F12.5°C 72% Calm Calm 5.8 mph9.3 kmh 28.96 in980.7 mb 0.00 in0.0 mm 0.00 in/hr0.0 mm/hr 0.00 in0.0 mm
12:31 AM 63.7°F17.6°C 54.5°F12.5°C 72% Calm Calm 5.8 mph9.3 kmh 28.96 in980.7 mb 0.00 in0.0 mm 0.00 in/hr0.0 mm/hr 0.00 in0.0 mm
12:30 AM 63.7°F17.6°C 54.5°F12.5°C 72% Calm Calm 5.8 mph9.3 kmh 28.96 in980.7 mb 0.00 in0.0 mm 0.00 in/hr0.0 mm/hr 0.00 in0.0 mm
12:29 AM 63.7°F17.6°C 54.5°F12.5°C 72% Calm Calm 5.8 mph9.3 kmh 28.96 in980.7 mb 0.00 in0.0 mm 0.00 in/hr0.0 mm/hr 0.00 in0.0 mm
12:28 AM 63.7°F17.6°C 54.5°F12.5°C 72% Calm Calm 5.8 mph9.3 kmh 28.96 in980.7 mb 0.00 in0.0 mm 0.00 in/hr0.0 mm/hr 0.00 in0.0 mm
12:27 AM 63.7°F17.6°C 54.5°F12.5°C 72% 0.4 mph SSW0.6 kmh SSW 5.8 mph9.3 kmh 28.96 in980.7 mb 0.00 in0.0 mm 0.00 in/hr0.0 mm/hr 0.00 in0.0 mm
12:26 AM 63.7°F17.6°C 54.5°F12.5°C 72% 4.5 mph SSW7.2 kmh SSW 5.8 mph9.3 kmh 28.96 in980.7 mb 0.00 in0.0 mm 0.00 in/hr0.0 mm/hr 0.00 in0.0 mm
12:25 AM 63.7°F17.6°C 54.9°F12.7°C 73% 4.3 mph SSW6.9 kmh SSW 5.8 mph9.3 kmh 28.96 in980.7 mb 0.00 in0.0 mm 0.00 in/hr0.0 mm/hr 0.00 in0.0 mm
12:24 AM 63.7°F17.6°C 54.5°F12.5°C 72% 2.9 mph SW4.7 kmh SW 4.3 mph6.9 kmh 28.96 in980.7 mb 0.00 in0.0 mm 0.00 in/hr0.0 mm/hr 0.00 in0.0 mm
12:23 AM 63.9°F17.7°C 54.7°F12.6°C 72% 1.3 mph SSW2.1 kmh SSW 3.6 mph5.8 kmh 28.96 in980.7 mb 0.00 in0.0 mm 0.00 in/hr0.0 mm/hr 0.00 in0.0 mm
12:22 AM 64.0°F17.8°C 54.9°F12.7°C 72% Calm Calm 3.6 mph5.8 kmh 28.96 in980.7 mb 0.00 in0.0 mm 0.00 in/hr0.0 mm/hr 0.00 in0.0 mm
12:21 AM 64.0°F17.8°C 54.9°F12.7°C 72% Calm Calm 3.6 mph5.8 kmh 28.96 in980.7 mb 0.00 in0.0 mm 0.00 in/hr0.0 mm/hr 0.00 in0.0 mm
12:20 AM 64.0°F17.8°C 55.2°F12.9°C 73% Calm Calm 3.6 mph5.8 kmh 28.96 in980.7 mb 0.00 in0.0 mm 0.00 in/hr0.0 mm/hr 0.00 in0.0 mm
12:19 AM 64.0°F17.8°C 54.9°F12.7°C 72% Calm Calm 3.6 mph5.8 kmh 28.96 in980.7 mb 0.00 in0.0 mm 0.00 in/hr0.0 mm/hr 0.00 in0.0 mm
12:18 AM 64.0°F17.8°C 54.9°F12.7°C 72% Calm Calm 3.6 mph5.8 kmh 28.96 in980.7 mb 0.00 in0.0 mm 0.00 in/hr0.0 mm/hr 0.00 in0.0 mm
12:17 AM 64.0°F17.8°C 54.9°F12.7°C 72% 3.6 mph SSW5.8 kmh SSW 3.6 mph5.8 kmh 28.96 in980.7 mb 0.00 in0.0 mm 0.00 in/hr0.0 mm/hr 0.00 in0.0 mm
12:16 AM 64.0°F17.8°C 55.2°F12.9°C 73% Calm Calm 1.6 mph2.6 kmh 28.96 in980.7 mb 0.00 in0.0 mm 0.00 in/hr0.0 mm/hr 0.00 in0.0 mm
12:15 AM 64.0°F17.8°C 55.2°F12.9°C 73% Calm Calm 1.6 mph2.6 kmh 28.96 in980.7 mb 0.00 in0.0 mm 0.00 in/hr0.0 mm/hr 0.00 in0.0 mm
12:14 AM 64.0°F17.8°C 55.2°F12.9°C 73% Calm Calm 1.6 mph2.6 kmh 28.96 in980.7 mb 0.00 in0.0 mm 0.00 in/hr0.0 mm/hr 0.00 in0.0 mm
12:13 AM 64.2°F17.9°C 55.4°F13.0°C 73% Calm Calm 1.6 mph2.6 kmh 28.96 in980.7 mb 0.00 in0.0 mm 0.00 in/hr0.0 mm/hr 0.00 in0.0 mm
12:12 AM 64.2°F17.9°C 55.4°F13.0°C 73% Calm Calm 1.6 mph2.6 kmh 28.96 in980.7 mb 0.00 in0.0 mm 0.00 in/hr0.0 mm/hr 0.00 in0.0 mm
12:11 AM 64.2°F17.9°C 55.4°F13.0°C 73% Calm Calm 1.6 mph2.6 kmh 28.96 in980.7 mb 0.00 in0.0 mm 0.00 in/hr0.0 mm/hr 0.00 in0.0 mm
12:10 AM 64.2°F17.9°C 55.4°F13.0°C 73% Calm Calm 1.6 mph2.6 kmh 28.96 in980.7 mb 0.00 in0.0 mm 0.00 in/hr0.0 mm/hr 0.00 in0.0 mm
12:09 AM 64.2°F17.9°C 55.4°F13.0°C 73% Calm Calm 1.6 mph2.6 kmh 28.96 in980.7 mb 0.00 in0.0 mm 0.00 in/hr0.0 mm/hr 0.00 in0.0 mm
12:08 AM 64.2°F17.9°C 55.4°F13.0°C 73% Calm Calm 1.6 mph2.6 kmh 28.96 in980.7 mb 0.00 in0.0 mm 0.00 in/hr0.0 mm/hr 0.00 in0.0 mm
12:07 AM 64.2°F17.9°C 55.4°F13.0°C 73% Calm Calm 1.6 mph2.6 kmh 28.96 in980.7 mb 0.00 in0.0 mm 0.00 in/hr0.0 mm/hr 0.00 in0.0 mm
12:06 AM 64.2°F17.9°C 55.0°F12.8°C 72% Calm Calm 1.6 mph2.6 kmh 28.96 in980.7 mb 0.00 in0.0 mm 0.00 in/hr0.0 mm/hr 0.00 in0.0 mm
12:05 AM 64.2°F17.9°C 55.0°F12.8°C 72% 0.4 mph SSW0.6 kmh SSW 1.6 mph2.6 kmh 28.96 in980.7 mb 0.00 in0.0 mm 0.00 in/hr0.0 mm/hr 0.00 in0.0 mm
12:04 AM 64.2°F17.9°C 55.0°F12.8°C 72% Calm Calm 1.6 mph2.6 kmh 28.96 in980.7 mb 0.00 in0.0 mm 0.00 in/hr0.0 mm/hr 0.00 in0.0 mm
12:03 AM 64.2°F17.9°C 55.0°F12.8°C 72% Calm Calm 1.6 mph2.6 kmh 28.96 in980.7 mb 0.00 in0.0 mm 0.00 in/hr0.0 mm/hr 0.00 in0.0 mm
12:00 AM 64.4°F18.0°C 55.2°F12.9°C 72% Calm Calm 2.9 mph4.7 kmh 28.96 in980.7 mb 0.00 in0.0 mm 0.00 in/hr0.0 mm/hr 0.00 in0.0 mm